<?xml version="1.0" encoding="UTF-8" standalone="no" ?>
<gpx xmlns="http://www.topografix.com/GPX/1/1" xmlns:xsi="http://www.w3.org/2001/XMLSchema-instance" xsi:schemaLocation="http://www.topografix.com/GPX/1/1 http://www.topografix.com/GPX/1/1/gpx.xsd" version="1.1" creator="VisuGPX - https://www.visugpx.com">
  <metadata>
    <name>tmPresqu'île de Crozon-Les Monts D'Arrée</name>
  </metadata>
  <trk>
    <name><![CDATA[tmp]]></name>
    <extensions>
      <line xmlns="http://www.topografix.com/GPX/gpx_style/0/2">
        <color>0000FF</color>
        <width>4</width>
      </line>
    </extensions>
    <trkseg>
      <trkpt lat="48.38273" lon="-3.94352">
        <ele>290.3</ele>
        <time>2021-09-24T08:10:47Z</time>
      </trkpt>
      <trkpt lat="48.38278" lon="-3.94349">
        <ele>296.6</ele>
        <time>2021-09-24T08:16:08Z</time>
      </trkpt>
      <trkpt lat="48.38283" lon="-3.94347">
        <ele>296.2</ele>
        <time>2021-09-24T08:16:12Z</time>
      </trkpt>
      <trkpt lat="48.38287" lon="-3.94345">
        <ele>295.8</ele>
        <time>2021-09-24T08:16:16Z</time>
      </trkpt>
      <trkpt lat="48.38293" lon="-3.94344">
        <ele>295.2</ele>
        <time>2021-09-24T08:16:22Z</time>
      </trkpt>
      <trkpt lat="48.38298" lon="-3.94343">
        <ele>293.9</ele>
        <time>2021-09-24T08:16:29Z</time>
      </trkpt>
      <trkpt lat="48.38303" lon="-3.94342">
        <ele>292.7</ele>
        <time>2021-09-24T08:16:35Z</time>
      </trkpt>
      <trkpt lat="48.38307" lon="-3.94344">
        <ele>292.8</ele>
        <time>2021-09-24T08:16:39Z</time>
      </trkpt>
      <trkpt lat="48.38311" lon="-3.94347">
        <ele>292.8</ele>
        <time>2021-09-24T08:16:43Z</time>
      </trkpt>
      <trkpt lat="48.38315" lon="-3.94351">
        <ele>293.3</ele>
        <time>2021-09-24T08:16:48Z</time>
      </trkpt>
      <trkpt lat="48.38319" lon="-3.94355">
        <ele>294</ele>
        <time>2021-09-24T08:16:57Z</time>
      </trkpt>
      <trkpt lat="48.3832" lon="-3.94362">
        <ele>293</ele>
        <time>2021-09-24T08:17:03Z</time>
      </trkpt>
      <trkpt lat="48.38319" lon="-3.9437">
        <ele>291.3</ele>
        <time>2021-09-24T08:17:09Z</time>
      </trkpt>
      <trkpt lat="48.38319" lon="-3.94378">
        <ele>290.2</ele>
        <time>2021-09-24T08:17:16Z</time>
      </trkpt>
      <trkpt lat="48.38317" lon="-3.94384">
        <ele>290.1</ele>
        <time>2021-09-24T08:17:22Z</time>
      </trkpt>
      <trkpt lat="48.38314" lon="-3.94391">
        <ele>290.9</ele>
        <time>2021-09-24T08:17:27Z</time>
      </trkpt>
      <trkpt lat="48.38313" lon="-3.94398">
        <ele>291.4</ele>
        <time>2021-09-24T08:17:32Z</time>
      </trkpt>
      <trkpt lat="48.38312" lon="-3.94404">
        <ele>292.1</ele>
        <time>2021-09-24T08:17:36Z</time>
      </trkpt>
      <trkpt lat="48.38308" lon="-3.9441">
        <ele>292.6</ele>
        <time>2021-09-24T08:17:40Z</time>
      </trkpt>
      <trkpt lat="48.38304" lon="-3.94414">
        <ele>293.1</ele>
        <time>2021-09-24T08:17:43Z</time>
      </trkpt>
      <trkpt lat="48.383" lon="-3.94418">
        <ele>294.1</ele>
        <time>2021-09-24T08:17:47Z</time>
      </trkpt>
      <trkpt lat="48.38296" lon="-3.94424">
        <ele>295.4</ele>
        <time>2021-09-24T08:17:53Z</time>
      </trkpt>
      <trkpt lat="48.38293" lon="-3.94429">
        <ele>295.9</ele>
        <time>2021-09-24T08:18:00Z</time>
      </trkpt>
      <trkpt lat="48.38288" lon="-3.94432">
        <ele>296.8</ele>
        <time>2021-09-24T08:18:06Z</time>
      </trkpt>
      <trkpt lat="48.38284" lon="-3.94435">
        <ele>297.5</ele>
        <time>2021-09-24T08:18:11Z</time>
      </trkpt>
      <trkpt lat="48.38279" lon="-3.94439">
        <ele>296.1</ele>
        <time>2021-09-24T08:18:33Z</time>
      </trkpt>
      <trkpt lat="48.38274" lon="-3.94442">
        <ele>295.7</ele>
        <time>2021-09-24T08:18:38Z</time>
      </trkpt>
      <trkpt lat="48.38269" lon="-3.94445">
        <ele>295.9</ele>
        <time>2021-09-24T08:18:42Z</time>
      </trkpt>
      <trkpt lat="48.38264" lon="-3.94447">
        <ele>296.2</ele>
        <time>2021-09-24T08:18:46Z</time>
      </trkpt>
      <trkpt lat="48.3826" lon="-3.94451">
        <ele>296.6</ele>
        <time>2021-09-24T08:18:50Z</time>
      </trkpt>
      <trkpt lat="48.38256" lon="-3.94456">
        <ele>296.5</ele>
        <time>2021-09-24T08:18:54Z</time>
      </trkpt>
      <trkpt lat="48.38253" lon="-3.9446">
        <ele>296.3</ele>
        <time>2021-09-24T08:18:58Z</time>
      </trkpt>
      <trkpt lat="48.38249" lon="-3.94465">
        <ele>295.8</ele>
        <time>2021-09-24T08:19:02Z</time>
      </trkpt>
      <trkpt lat="48.38245" lon="-3.9447">
        <ele>296</ele>
        <time>2021-09-24T08:19:09Z</time>
      </trkpt>
      <trkpt lat="48.38241" lon="-3.94475">
        <ele>297.9</ele>
        <time>2021-09-24T08:19:16Z</time>
      </trkpt>
      <trkpt lat="48.38238" lon="-3.94481">
        <ele>299</ele>
        <time>2021-09-24T08:19:20Z</time>
      </trkpt>
      <trkpt lat="48.38236" lon="-3.94486">
        <ele>299.9</ele>
        <time>2021-09-24T08:19:24Z</time>
      </trkpt>
      <trkpt lat="48.38232" lon="-3.94491">
        <ele>301</ele>
        <time>2021-09-24T08:19:28Z</time>
      </trkpt>
      <trkpt lat="48.38229" lon="-3.94497">
        <ele>301.9</ele>
        <time>2021-09-24T08:19:32Z</time>
      </trkpt>
      <trkpt lat="48.38225" lon="-3.94503">
        <ele>302.9</ele>
        <time>2021-09-24T08:19:37Z</time>
      </trkpt>
      <trkpt lat="48.38222" lon="-3.94509">
        <ele>303.5</ele>
        <time>2021-09-24T08:19:42Z</time>
      </trkpt>
      <trkpt lat="48.38218" lon="-3.94515">
        <ele>304.3</ele>
        <time>2021-09-24T08:19:47Z</time>
      </trkpt>
      <trkpt lat="48.38214" lon="-3.9452">
        <ele>305.2</ele>
        <time>2021-09-24T08:19:52Z</time>
      </trkpt>
      <trkpt lat="48.3821" lon="-3.94525">
        <ele>305.5</ele>
        <time>2021-09-24T08:19:57Z</time>
      </trkpt>
      <trkpt lat="48.38205" lon="-3.94529">
        <ele>305.3</ele>
        <time>2021-09-24T08:20:02Z</time>
      </trkpt>
      <trkpt lat="48.38201" lon="-3.94533">
        <ele>305.2</ele>
        <time>2021-09-24T08:20:06Z</time>
      </trkpt>
      <trkpt lat="48.38198" lon="-3.94538">
        <ele>305.1</ele>
        <time>2021-09-24T08:20:11Z</time>
      </trkpt>
      <trkpt lat="48.38193" lon="-3.94542">
        <ele>305.5</ele>
        <time>2021-09-24T08:20:16Z</time>
      </trkpt>
      <trkpt lat="48.38188" lon="-3.94546">
        <ele>305.9</ele>
        <time>2021-09-24T08:20:21Z</time>
      </trkpt>
      <trkpt lat="48.38184" lon="-3.9455">
        <ele>306.5</ele>
        <time>2021-09-24T08:20:25Z</time>
      </trkpt>
      <trkpt lat="48.3818" lon="-3.94552">
        <ele>307.6</ele>
        <time>2021-09-24T08:20:30Z</time>
      </trkpt>
      <trkpt lat="48.38175" lon="-3.94556">
        <ele>309.1</ele>
        <time>2021-09-24T08:20:36Z</time>
      </trkpt>
      <trkpt lat="48.38172" lon="-3.94561">
        <ele>309.7</ele>
        <time>2021-09-24T08:20:41Z</time>
      </trkpt>
      <trkpt lat="48.38169" lon="-3.94566">
        <ele>310.4</ele>
        <time>2021-09-24T08:20:46Z</time>
      </trkpt>
      <trkpt lat="48.38166" lon="-3.94572">
        <ele>310.5</ele>
        <time>2021-09-24T08:20:52Z</time>
      </trkpt>
      <trkpt lat="48.38164" lon="-3.94579">
        <ele>310.1</ele>
        <time>2021-09-24T08:20:57Z</time>
      </trkpt>
      <trkpt lat="48.38161" lon="-3.94585">
        <ele>309.5</ele>
        <time>2021-09-24T08:21:02Z</time>
      </trkpt>
      <trkpt lat="48.38159" lon="-3.94592">
        <ele>309.2</ele>
        <time>2021-09-24T08:21:07Z</time>
      </trkpt>
      <trkpt lat="48.38156" lon="-3.94599">
        <ele>309.4</ele>
        <time>2021-09-24T08:21:13Z</time>
      </trkpt>
      <trkpt lat="48.38153" lon="-3.94605">
        <ele>310.1</ele>
        <time>2021-09-24T08:21:18Z</time>
      </trkpt>
      <trkpt lat="48.3815" lon="-3.94611">
        <ele>310.7</ele>
        <time>2021-09-24T08:21:23Z</time>
      </trkpt>
      <trkpt lat="48.38146" lon="-3.94615">
        <ele>311.3</ele>
        <time>2021-09-24T08:21:29Z</time>
      </trkpt>
      <trkpt lat="48.38143" lon="-3.94621">
        <ele>311.5</ele>
        <time>2021-09-24T08:21:34Z</time>
      </trkpt>
      <trkpt lat="48.38139" lon="-3.94625">
        <ele>311.5</ele>
        <time>2021-09-24T08:21:38Z</time>
      </trkpt>
      <trkpt lat="48.38135" lon="-3.94629">
        <ele>311.3</ele>
        <time>2021-09-24T08:21:43Z</time>
      </trkpt>
      <trkpt lat="48.38131" lon="-3.94635">
        <ele>311.6</ele>
        <time>2021-09-24T08:21:48Z</time>
      </trkpt>
      <trkpt lat="48.38128" lon="-3.94641">
        <ele>312.3</ele>
        <time>2021-09-24T08:21:53Z</time>
      </trkpt>
      <trkpt lat="48.38124" lon="-3.94644">
        <ele>313.5</ele>
        <time>2021-09-24T08:21:57Z</time>
      </trkpt>
      <trkpt lat="48.38119" lon="-3.94647">
        <ele>314.3</ele>
        <time>2021-09-24T08:22:01Z</time>
      </trkpt>
      <trkpt lat="48.38115" lon="-3.9465">
        <ele>314.9</ele>
        <time>2021-09-24T08:22:05Z</time>
      </trkpt>
      <trkpt lat="48.38111" lon="-3.94654">
        <ele>315.6</ele>
        <time>2021-09-24T08:22:10Z</time>
      </trkpt>
      <trkpt lat="48.38108" lon="-3.94661">
        <ele>315.6</ele>
        <time>2021-09-24T08:22:15Z</time>
      </trkpt>
      <trkpt lat="48.38104" lon="-3.94665">
        <ele>315.7</ele>
        <time>2021-09-24T08:22:19Z</time>
      </trkpt>
      <trkpt lat="48.38099" lon="-3.94668">
        <ele>316</ele>
        <time>2021-09-24T08:22:24Z</time>
      </trkpt>
      <trkpt lat="48.38094" lon="-3.9467">
        <ele>316.4</ele>
        <time>2021-09-24T08:22:30Z</time>
      </trkpt>
      <trkpt lat="48.3809" lon="-3.94674">
        <ele>316.5</ele>
        <time>2021-09-24T08:22:35Z</time>
      </trkpt>
      <trkpt lat="48.38086" lon="-3.94678">
        <ele>316.7</ele>
        <time>2021-09-24T08:22:41Z</time>
      </trkpt>
      <trkpt lat="48.38082" lon="-3.94681">
        <ele>316.2</ele>
        <time>2021-09-24T08:22:48Z</time>
      </trkpt>
      <trkpt lat="48.38077" lon="-3.94685">
        <ele>315.6</ele>
        <time>2021-09-24T08:22:54Z</time>
      </trkpt>
      <trkpt lat="48.38073" lon="-3.94688">
        <ele>315.7</ele>
        <time>2021-09-24T08:22:58Z</time>
      </trkpt>
      <trkpt lat="48.38069" lon="-3.94693">
        <ele>316</ele>
        <time>2021-09-24T08:23:02Z</time>
      </trkpt>
      <trkpt lat="48.38065" lon="-3.94697">
        <ele>316.1</ele>
        <time>2021-09-24T08:23:06Z</time>
      </trkpt>
      <trkpt lat="48.3806" lon="-3.94701">
        <ele>316.6</ele>
        <time>2021-09-24T08:23:11Z</time>
      </trkpt>
      <trkpt lat="48.38056" lon="-3.94706">
        <ele>317.5</ele>
        <time>2021-09-24T08:23:16Z</time>
      </trkpt>
      <trkpt lat="48.38051" lon="-3.94709">
        <ele>318.5</ele>
        <time>2021-09-24T08:23:20Z</time>
      </trkpt>
      <trkpt lat="48.38048" lon="-3.94713">
        <ele>319.5</ele>
        <time>2021-09-24T08:23:24Z</time>
      </trkpt>
      <trkpt lat="48.38043" lon="-3.94717">
        <ele>320.8</ele>
        <time>2021-09-24T08:23:29Z</time>
      </trkpt>
      <trkpt lat="48.38039" lon="-3.94722">
        <ele>321.1</ele>
        <time>2021-09-24T08:23:34Z</time>
      </trkpt>
      <trkpt lat="48.38034" lon="-3.94727">
        <ele>321.5</ele>
        <time>2021-09-24T08:23:39Z</time>
      </trkpt>
      <trkpt lat="48.38031" lon="-3.94732">
        <ele>322.3</ele>
        <time>2021-09-24T08:23:44Z</time>
      </trkpt>
      <trkpt lat="48.38026" lon="-3.94737">
        <ele>323.2</ele>
        <time>2021-09-24T08:23:49Z</time>
      </trkpt>
      <trkpt lat="48.38023" lon="-3.94742">
        <ele>324</ele>
        <time>2021-09-24T08:23:53Z</time>
      </trkpt>
      <trkpt lat="48.38021" lon="-3.94748">
        <ele>324.3</ele>
        <time>2021-09-24T08:23:57Z</time>
      </trkpt>
      <trkpt lat="48.38017" lon="-3.94754">
        <ele>324.2</ele>
        <time>2021-09-24T08:24:02Z</time>
      </trkpt>
      <trkpt lat="48.38013" lon="-3.94759">
        <ele>323.6</ele>
        <time>2021-09-24T08:24:07Z</time>
      </trkpt>
      <trkpt lat="48.3801" lon="-3.94764">
        <ele>323.1</ele>
        <time>2021-09-24T08:24:12Z</time>
      </trkpt>
      <trkpt lat="48.38007" lon="-3.94769">
        <ele>322.9</ele>
        <time>2021-09-24T08:24:18Z</time>
      </trkpt>
      <trkpt lat="48.38003" lon="-3.94774">
        <ele>322.7</ele>
        <time>2021-09-24T08:24:23Z</time>
      </trkpt>
      <trkpt lat="48.38" lon="-3.9478">
        <ele>322.6</ele>
        <time>2021-09-24T08:24:28Z</time>
      </trkpt>
      <trkpt lat="48.37997" lon="-3.94785">
        <ele>322.9</ele>
        <time>2021-09-24T08:24:33Z</time>
      </trkpt>
      <trkpt lat="48.37993" lon="-3.9479">
        <ele>323.2</ele>
        <time>2021-09-24T08:24:38Z</time>
      </trkpt>
      <trkpt lat="48.3799" lon="-3.94795">
        <ele>323.3</ele>
        <time>2021-09-24T08:24:43Z</time>
      </trkpt>
      <trkpt lat="48.37986" lon="-3.948">
        <ele>323.9</ele>
        <time>2021-09-24T08:24:48Z</time>
      </trkpt>
      <trkpt lat="48.37983" lon="-3.94806">
        <ele>324.3</ele>
        <time>2021-09-24T08:24:55Z</time>
      </trkpt>
      <trkpt lat="48.37979" lon="-3.9481">
        <ele>324.6</ele>
        <time>2021-09-24T08:25:01Z</time>
      </trkpt>
      <trkpt lat="48.37976" lon="-3.94816">
        <ele>325.1</ele>
        <time>2021-09-24T08:25:07Z</time>
      </trkpt>
      <trkpt lat="48.37972" lon="-3.94821">
        <ele>325.4</ele>
        <time>2021-09-24T08:25:12Z</time>
      </trkpt>
      <trkpt lat="48.37968" lon="-3.94825">
        <ele>325.9</ele>
        <time>2021-09-24T08:25:16Z</time>
      </trkpt>
      <trkpt lat="48.37965" lon="-3.94831">
        <ele>326.7</ele>
        <time>2021-09-24T08:25:21Z</time>
      </trkpt>
      <trkpt lat="48.37962" lon="-3.94837">
        <ele>327.9</ele>
        <time>2021-09-24T08:25:26Z</time>
      </trkpt>
      <trkpt lat="48.37959" lon="-3.94842">
        <ele>328.5</ele>
        <time>2021-09-24T08:25:31Z</time>
      </trkpt>
      <trkpt lat="48.37956" lon="-3.94848">
        <ele>328.8</ele>
        <time>2021-09-24T08:25:36Z</time>
      </trkpt>
      <trkpt lat="48.37952" lon="-3.94853">
        <ele>329.2</ele>
        <time>2021-09-24T08:25:41Z</time>
      </trkpt>
      <trkpt lat="48.3795" lon="-3.94859">
        <ele>329.3</ele>
        <time>2021-09-24T08:25:47Z</time>
      </trkpt>
      <trkpt lat="48.37947" lon="-3.94866">
        <ele>329.3</ele>
        <time>2021-09-24T08:25:53Z</time>
      </trkpt>
      <trkpt lat="48.37944" lon="-3.94873">
        <ele>328.8</ele>
        <time>2021-09-24T08:25:59Z</time>
      </trkpt>
      <trkpt lat="48.37941" lon="-3.94879">
        <ele>328.5</ele>
        <time>2021-09-24T08:26:04Z</time>
      </trkpt>
      <trkpt lat="48.37938" lon="-3.94885">
        <ele>329.1</ele>
        <time>2021-09-24T08:26:09Z</time>
      </trkpt>
      <trkpt lat="48.37935" lon="-3.94891">
        <ele>329.7</ele>
        <time>2021-09-24T08:26:14Z</time>
      </trkpt>
      <trkpt lat="48.37933" lon="-3.94898">
        <ele>330.5</ele>
        <time>2021-09-24T08:26:20Z</time>
      </trkpt>
      <trkpt lat="48.37929" lon="-3.94904">
        <ele>330.5</ele>
        <time>2021-09-24T08:26:26Z</time>
      </trkpt>
      <trkpt lat="48.37925" lon="-3.94908">
        <ele>330.7</ele>
        <time>2021-09-24T08:26:31Z</time>
      </trkpt>
      <trkpt lat="48.37921" lon="-3.94913">
        <ele>331</ele>
        <time>2021-09-24T08:26:36Z</time>
      </trkpt>
      <trkpt lat="48.37917" lon="-3.94917">
        <ele>331.9</ele>
        <time>2021-09-24T08:26:41Z</time>
      </trkpt>
      <trkpt lat="48.37912" lon="-3.94919">
        <ele>332.9</ele>
        <time>2021-09-24T08:26:46Z</time>
      </trkpt>
      <trkpt lat="48.37907" lon="-3.94921">
        <ele>334.2</ele>
        <time>2021-09-24T08:26:51Z</time>
      </trkpt>
      <trkpt lat="48.37903" lon="-3.94924">
        <ele>335.7</ele>
        <time>2021-09-24T08:26:56Z</time>
      </trkpt>
      <trkpt lat="48.37899" lon="-3.94928">
        <ele>336.3</ele>
        <time>2021-09-24T08:27:00Z</time>
      </trkpt>
      <trkpt lat="48.37895" lon="-3.94931">
        <ele>336.9</ele>
        <time>2021-09-24T08:27:04Z</time>
      </trkpt>
      <trkpt lat="48.3789" lon="-3.94935">
        <ele>337.5</ele>
        <time>2021-09-24T08:27:09Z</time>
      </trkpt>
      <trkpt lat="48.37886" lon="-3.94938">
        <ele>337.5</ele>
        <time>2021-09-24T08:27:13Z</time>
      </trkpt>
      <trkpt lat="48.37882" lon="-3.94942">
        <ele>337.3</ele>
        <time>2021-09-24T08:27:17Z</time>
      </trkpt>
      <trkpt lat="48.37878" lon="-3.94947">
        <ele>337.3</ele>
        <time>2021-09-24T08:27:22Z</time>
      </trkpt>
      <trkpt lat="48.37873" lon="-3.94951">
        <ele>337</ele>
        <time>2021-09-24T08:27:27Z</time>
      </trkpt>
      <trkpt lat="48.37869" lon="-3.94955">
        <ele>336.7</ele>
        <time>2021-09-24T08:27:32Z</time>
      </trkpt>
      <trkpt lat="48.37865" lon="-3.94961">
        <ele>336.9</ele>
        <time>2021-09-24T08:27:37Z</time>
      </trkpt>
      <trkpt lat="48.37862" lon="-3.94966">
        <ele>337.9</ele>
        <time>2021-09-24T08:27:42Z</time>
      </trkpt>
      <trkpt lat="48.37857" lon="-3.94969">
        <ele>339</ele>
        <time>2021-09-24T08:27:47Z</time>
      </trkpt>
      <trkpt lat="48.37852" lon="-3.9497">
        <ele>339.9</ele>
        <time>2021-09-24T08:27:51Z</time>
      </trkpt>
      <trkpt lat="48.37847" lon="-3.94971">
        <ele>340.6</ele>
        <time>2021-09-24T08:27:55Z</time>
      </trkpt>
      <trkpt lat="48.37842" lon="-3.94975">
        <ele>340.9</ele>
        <time>2021-09-24T08:28:00Z</time>
      </trkpt>
      <trkpt lat="48.37838" lon="-3.94978">
        <ele>340.9</ele>
        <time>2021-09-24T08:28:05Z</time>
      </trkpt>
      <trkpt lat="48.37834" lon="-3.9498">
        <ele>340.8</ele>
        <time>2021-09-24T08:28:09Z</time>
      </trkpt>
      <trkpt lat="48.37829" lon="-3.94982">
        <ele>340.8</ele>
        <time>2021-09-24T08:28:13Z</time>
      </trkpt>
      <trkpt lat="48.37824" lon="-3.94987">
        <ele>341.3</ele>
        <time>2021-09-24T08:28:18Z</time>
      </trkpt>
      <trkpt lat="48.3782" lon="-3.9499">
        <ele>341.6</ele>
        <time>2021-09-24T08:28:23Z</time>
      </trkpt>
      <trkpt lat="48.37816" lon="-3.94993">
        <ele>342</ele>
        <time>2021-09-24T08:28:27Z</time>
      </trkpt>
      <trkpt lat="48.37811" lon="-3.94998">
        <ele>342.4</ele>
        <time>2021-09-24T08:28:32Z</time>
      </trkpt>
      <trkpt lat="48.37807" lon="-3.95003">
        <ele>343.1</ele>
        <time>2021-09-24T08:28:37Z</time>
      </trkpt>
      <trkpt lat="48.37804" lon="-3.95009">
        <ele>343.5</ele>
        <time>2021-09-24T08:28:41Z</time>
      </trkpt>
      <trkpt lat="48.378" lon="-3.95013">
        <ele>343.9</ele>
        <time>2021-09-24T08:28:45Z</time>
      </trkpt>
      <trkpt lat="48.37795" lon="-3.95017">
        <ele>344.6</ele>
        <time>2021-09-24T08:28:50Z</time>
      </trkpt>
      <trkpt lat="48.3779" lon="-3.95021">
        <ele>345.3</ele>
        <time>2021-09-24T08:28:55Z</time>
      </trkpt>
      <trkpt lat="48.37785" lon="-3.95024">
        <ele>346.1</ele>
        <time>2021-09-24T08:29:00Z</time>
      </trkpt>
      <trkpt lat="48.37781" lon="-3.95028">
        <ele>347</ele>
        <time>2021-09-24T08:29:04Z</time>
      </trkpt>
      <trkpt lat="48.37777" lon="-3.95032">
        <ele>347.8</ele>
        <time>2021-09-24T08:29:09Z</time>
      </trkpt>
      <trkpt lat="48.37772" lon="-3.95036">
        <ele>348</ele>
        <time>2021-09-24T08:29:14Z</time>
      </trkpt>
      <trkpt lat="48.37768" lon="-3.9504">
        <ele>348.2</ele>
        <time>2021-09-24T08:29:20Z</time>
      </trkpt>
      <trkpt lat="48.37764" lon="-3.95044">
        <ele>348.2</ele>
        <time>2021-09-24T08:29:25Z</time>
      </trkpt>
      <trkpt lat="48.37761" lon="-3.95049">
        <ele>348.3</ele>
        <time>2021-09-24T08:29:30Z</time>
      </trkpt>
      <trkpt lat="48.37757" lon="-3.95054">
        <ele>348.7</ele>
        <time>2021-09-24T08:29:35Z</time>
      </trkpt>
      <trkpt lat="48.37754" lon="-3.95059">
        <ele>350.6</ele>
        <time>2021-09-24T08:32:13Z</time>
      </trkpt>
      <trkpt lat="48.3775" lon="-3.95063">
        <ele>349.9</ele>
        <time>2021-09-24T08:35:22Z</time>
      </trkpt>
      <trkpt lat="48.37746" lon="-3.95068">
        <ele>350.5</ele>
        <time>2021-09-24T08:35:28Z</time>
      </trkpt>
      <trkpt lat="48.37741" lon="-3.95072">
        <ele>350.7</ele>
        <time>2021-09-24T08:35:34Z</time>
      </trkpt>
      <trkpt lat="48.37737" lon="-3.95076">
        <ele>351.1</ele>
        <time>2021-09-24T08:35:39Z</time>
      </trkpt>
      <trkpt lat="48.37733" lon="-3.9508">
        <ele>351.4</ele>
        <time>2021-09-24T08:35:44Z</time>
      </trkpt>
      <trkpt lat="48.37729" lon="-3.95084">
        <ele>351.4</ele>
        <time>2021-09-24T08:35:48Z</time>
      </trkpt>
      <trkpt lat="48.37726" lon="-3.9509">
        <ele>350.5</ele>
        <time>2021-09-24T08:35:54Z</time>
      </trkpt>
      <trkpt lat="48.37723" lon="-3.95096">
        <ele>350.5</ele>
        <time>2021-09-24T08:36:00Z</time>
      </trkpt>
      <trkpt lat="48.3772" lon="-3.95102">
        <ele>350.9</ele>
        <time>2021-09-24T08:36:07Z</time>
      </trkpt>
      <trkpt lat="48.37716" lon="-3.95105">
        <ele>351.3</ele>
        <time>2021-09-24T08:36:15Z</time>
      </trkpt>
      <trkpt lat="48.37712" lon="-3.9511">
        <ele>351.4</ele>
        <time>2021-09-24T08:36:21Z</time>
      </trkpt>
      <trkpt lat="48.37707" lon="-3.95113">
        <ele>351.9</ele>
        <time>2021-09-24T08:36:26Z</time>
      </trkpt>
      <trkpt lat="48.37702" lon="-3.95115">
        <ele>352.6</ele>
        <time>2021-09-24T08:36:31Z</time>
      </trkpt>
      <trkpt lat="48.37697" lon="-3.95114">
        <ele>353.3</ele>
        <time>2021-09-24T08:36:36Z</time>
      </trkpt>
      <trkpt lat="48.37692" lon="-3.95114">
        <ele>353.9</ele>
        <time>2021-09-24T08:36:41Z</time>
      </trkpt>
      <trkpt lat="48.37688" lon="-3.95112">
        <ele>354</ele>
        <time>2021-09-24T08:36:45Z</time>
      </trkpt>
      <trkpt lat="48.37683" lon="-3.9511">
        <ele>354.3</ele>
        <time>2021-09-24T08:36:49Z</time>
      </trkpt>
      <trkpt lat="48.37679" lon="-3.95108">
        <ele>355</ele>
        <time>2021-09-24T08:36:54Z</time>
      </trkpt>
      <trkpt lat="48.37674" lon="-3.95106">
        <ele>355</ele>
        <time>2021-09-24T08:36:59Z</time>
      </trkpt>
      <trkpt lat="48.37669" lon="-3.95107">
        <ele>354.8</ele>
        <time>2021-09-24T08:37:05Z</time>
      </trkpt>
      <trkpt lat="48.37664" lon="-3.95106">
        <ele>355.1</ele>
        <time>2021-09-24T08:37:10Z</time>
      </trkpt>
      <trkpt lat="48.37658" lon="-3.95107">
        <ele>355.3</ele>
        <time>2021-09-24T08:37:16Z</time>
      </trkpt>
      <trkpt lat="48.37654" lon="-3.95106">
        <ele>355.5</ele>
        <time>2021-09-24T08:37:20Z</time>
      </trkpt>
      <trkpt lat="48.37649" lon="-3.95106">
        <ele>356.6</ele>
        <time>2021-09-24T08:37:25Z</time>
      </trkpt>
      <trkpt lat="48.37644" lon="-3.95106">
        <ele>357.3</ele>
        <time>2021-09-24T08:37:31Z</time>
      </trkpt>
      <trkpt lat="48.37639" lon="-3.95106">
        <ele>356.8</ele>
        <time>2021-09-24T08:37:35Z</time>
      </trkpt>
      <trkpt lat="48.37634" lon="-3.95106">
        <ele>356.4</ele>
        <time>2021-09-24T08:37:39Z</time>
      </trkpt>
      <trkpt lat="48.37629" lon="-3.95106">
        <ele>356.1</ele>
        <time>2021-09-24T08:37:43Z</time>
      </trkpt>
      <trkpt lat="48.37624" lon="-3.95105">
        <ele>356.2</ele>
        <time>2021-09-24T08:37:47Z</time>
      </trkpt>
      <trkpt lat="48.37618" lon="-3.95106">
        <ele>356.7</ele>
        <time>2021-09-24T08:37:52Z</time>
      </trkpt>
      <trkpt lat="48.37613" lon="-3.95109">
        <ele>357.1</ele>
        <time>2021-09-24T08:37:58Z</time>
      </trkpt>
      <trkpt lat="48.37609" lon="-3.95111">
        <ele>357.4</ele>
        <time>2021-09-24T08:38:04Z</time>
      </trkpt>
      <trkpt lat="48.37604" lon="-3.95114">
        <ele>357.7</ele>
        <time>2021-09-24T08:38:10Z</time>
      </trkpt>
      <trkpt lat="48.376" lon="-3.95117">
        <ele>358.1</ele>
        <time>2021-09-24T08:38:15Z</time>
      </trkpt>
      <trkpt lat="48.37596" lon="-3.9512">
        <ele>359</ele>
        <time>2021-09-24T08:38:21Z</time>
      </trkpt>
      <trkpt lat="48.37591" lon="-3.95122">
        <ele>360.1</ele>
        <time>2021-09-24T08:38:29Z</time>
      </trkpt>
      <trkpt lat="48.37587" lon="-3.95125">
        <ele>360.9</ele>
        <time>2021-09-24T08:38:36Z</time>
      </trkpt>
      <trkpt lat="48.37583" lon="-3.95128">
        <ele>361.9</ele>
        <time>2021-09-24T08:38:43Z</time>
      </trkpt>
      <trkpt lat="48.37578" lon="-3.95131">
        <ele>362.6</ele>
        <time>2021-09-24T08:38:49Z</time>
      </trkpt>
      <trkpt lat="48.37573" lon="-3.95133">
        <ele>363.4</ele>
        <time>2021-09-24T08:38:56Z</time>
      </trkpt>
      <trkpt lat="48.37569" lon="-3.95136">
        <ele>363.4</ele>
        <time>2021-09-24T08:39:02Z</time>
      </trkpt>
      <trkpt lat="48.37565" lon="-3.95141">
        <ele>363.8</ele>
        <time>2021-09-24T08:39:08Z</time>
      </trkpt>
      <trkpt lat="48.37561" lon="-3.95146">
        <ele>364.5</ele>
        <time>2021-09-24T08:39:14Z</time>
      </trkpt>
      <trkpt lat="48.37557" lon="-3.9515">
        <ele>365.3</ele>
        <time>2021-09-24T08:39:19Z</time>
      </trkpt>
      <trkpt lat="48.37553" lon="-3.95155">
        <ele>366.1</ele>
        <time>2021-09-24T08:39:24Z</time>
      </trkpt>
      <trkpt lat="48.3755" lon="-3.9516">
        <ele>367.3</ele>
        <time>2021-09-24T08:39:29Z</time>
      </trkpt>
      <trkpt lat="48.37547" lon="-3.95166">
        <ele>368</ele>
        <time>2021-09-24T08:39:35Z</time>
      </trkpt>
      <trkpt lat="48.37544" lon="-3.95171">
        <ele>368.1</ele>
        <time>2021-09-24T08:39:44Z</time>
      </trkpt>
      <trkpt lat="48.3754" lon="-3.95176">
        <ele>368.7</ele>
        <time>2021-09-24T08:39:49Z</time>
      </trkpt>
      <trkpt lat="48.37537" lon="-3.9518">
        <ele>370.1</ele>
        <time>2021-09-24T08:39:55Z</time>
      </trkpt>
      <trkpt lat="48.37533" lon="-3.95184">
        <ele>371</ele>
        <time>2021-09-24T08:40:00Z</time>
      </trkpt>
      <trkpt lat="48.37527" lon="-3.95186">
        <ele>371.6</ele>
        <time>2021-09-24T08:40:06Z</time>
      </trkpt>
      <trkpt lat="48.37523" lon="-3.95189">
        <ele>372.2</ele>
        <time>2021-09-24T08:40:11Z</time>
      </trkpt>
      <trkpt lat="48.37518" lon="-3.95193">
        <ele>372.5</ele>
        <time>2021-09-24T08:40:16Z</time>
      </trkpt>
      <trkpt lat="48.37513" lon="-3.95195">
        <ele>372.2</ele>
        <time>2021-09-24T08:40:21Z</time>
      </trkpt>
      <trkpt lat="48.37508" lon="-3.95199">
        <ele>371.9</ele>
        <time>2021-09-24T08:40:26Z</time>
      </trkpt>
      <trkpt lat="48.37503" lon="-3.95202">
        <ele>371.8</ele>
        <time>2021-09-24T08:40:31Z</time>
      </trkpt>
      <trkpt lat="48.37498" lon="-3.95204">
        <ele>371.6</ele>
        <time>2021-09-24T08:40:36Z</time>
      </trkpt>
      <trkpt lat="48.37494" lon="-3.95206">
        <ele>371.4</ele>
        <time>2021-09-24T08:40:41Z</time>
      </trkpt>
      <trkpt lat="48.37489" lon="-3.95209">
        <ele>371.9</ele>
        <time>2021-09-24T08:40:46Z</time>
      </trkpt>
      <trkpt lat="48.37484" lon="-3.95211">
        <ele>372.3</ele>
        <time>2021-09-24T08:40:51Z</time>
      </trkpt>
      <trkpt lat="48.3748" lon="-3.95214">
        <ele>372.9</ele>
        <time>2021-09-24T08:40:56Z</time>
      </trkpt>
      <trkpt lat="48.37475" lon="-3.95216">
        <ele>372.6</ele>
        <time>2021-09-24T08:41:01Z</time>
      </trkpt>
      <trkpt lat="48.3747" lon="-3.95217">
        <ele>372</ele>
        <time>2021-09-24T08:41:05Z</time>
      </trkpt>
      <trkpt lat="48.37466" lon="-3.9522">
        <ele>372</ele>
        <time>2021-09-24T08:41:10Z</time>
      </trkpt>
      <trkpt lat="48.3746" lon="-3.9522">
        <ele>372.2</ele>
        <time>2021-09-24T08:41:15Z</time>
      </trkpt>
      <trkpt lat="48.37456" lon="-3.9522">
        <ele>372.3</ele>
        <time>2021-09-24T08:41:19Z</time>
      </trkpt>
      <trkpt lat="48.37451" lon="-3.9522">
        <ele>372.6</ele>
        <time>2021-09-24T08:41:23Z</time>
      </trkpt>
      <trkpt lat="48.37446" lon="-3.95221">
        <ele>373.1</ele>
        <time>2021-09-24T08:41:27Z</time>
      </trkpt>
      <trkpt lat="48.37442" lon="-3.95223">
        <ele>373.9</ele>
        <time>2021-09-24T08:41:31Z</time>
      </trkpt>
      <trkpt lat="48.37438" lon="-3.95224">
        <ele>374.6</ele>
        <time>2021-09-24T08:41:35Z</time>
      </trkpt>
      <trkpt lat="48.37433" lon="-3.95226">
        <ele>375.2</ele>
        <time>2021-09-24T08:41:40Z</time>
      </trkpt>
      <trkpt lat="48.37428" lon="-3.95228">
        <ele>375.5</ele>
        <time>2021-09-24T08:41:45Z</time>
      </trkpt>
      <trkpt lat="48.37423" lon="-3.9523">
        <ele>375.2</ele>
        <time>2021-09-24T08:41:50Z</time>
      </trkpt>
      <trkpt lat="48.37418" lon="-3.95233">
        <ele>374.5</ele>
        <time>2021-09-24T08:41:55Z</time>
      </trkpt>
      <trkpt lat="48.37414" lon="-3.95236">
        <ele>374.5</ele>
        <time>2021-09-24T08:42:00Z</time>
      </trkpt>
      <trkpt lat="48.37408" lon="-3.95238">
        <ele>374.9</ele>
        <time>2021-09-24T08:42:05Z</time>
      </trkpt>
      <trkpt lat="48.37403" lon="-3.95239">
        <ele>374.8</ele>
        <time>2021-09-24T08:42:10Z</time>
      </trkpt>
      <trkpt lat="48.37398" lon="-3.9524">
        <ele>374.6</ele>
        <time>2021-09-24T08:42:14Z</time>
      </trkpt>
      <trkpt lat="48.37394" lon="-3.95241">
        <ele>374.8</ele>
        <time>2021-09-24T08:42:18Z</time>
      </trkpt>
      <trkpt lat="48.37389" lon="-3.95244">
        <ele>375.1</ele>
        <time>2021-09-24T08:42:23Z</time>
      </trkpt>
      <trkpt lat="48.37384" lon="-3.95245">
        <ele>375.1</ele>
        <time>2021-09-24T08:42:28Z</time>
      </trkpt>
      <trkpt lat="48.3738" lon="-3.95246">
        <ele>374.9</ele>
        <time>2021-09-24T08:42:32Z</time>
      </trkpt>
      <trkpt lat="48.37375" lon="-3.95248">
        <ele>374.7</ele>
        <time>2021-09-24T08:42:36Z</time>
      </trkpt>
      <trkpt lat="48.3737" lon="-3.9525">
        <ele>375.1</ele>
        <time>2021-09-24T08:42:41Z</time>
      </trkpt>
      <trkpt lat="48.37365" lon="-3.95251">
        <ele>375.8</ele>
        <time>2021-09-24T08:42:46Z</time>
      </trkpt>
      <trkpt lat="48.37361" lon="-3.95254">
        <ele>376.4</ele>
        <time>2021-09-24T08:42:51Z</time>
      </trkpt>
      <trkpt lat="48.37356" lon="-3.95254">
        <ele>376.9</ele>
        <time>2021-09-24T08:42:56Z</time>
      </trkpt>
      <trkpt lat="48.37352" lon="-3.95256">
        <ele>377.9</ele>
        <time>2021-09-24T08:43:01Z</time>
      </trkpt>
      <trkpt lat="48.37347" lon="-3.95259">
        <ele>378.8</ele>
        <time>2021-09-24T08:43:06Z</time>
      </trkpt>
      <trkpt lat="48.37342" lon="-3.95262">
        <ele>379.9</ele>
        <time>2021-09-24T08:43:14Z</time>
      </trkpt>
      <trkpt lat="48.37337" lon="-3.9526">
        <ele>379.8</ele>
        <time>2021-09-24T08:43:19Z</time>
      </trkpt>
      <trkpt lat="48.37332" lon="-3.95257">
        <ele>379.5</ele>
        <time>2021-09-24T08:43:23Z</time>
      </trkpt>
      <trkpt lat="48.37328" lon="-3.95257">
        <ele>379.6</ele>
        <time>2021-09-24T08:43:28Z</time>
      </trkpt>
      <trkpt lat="48.37323" lon="-3.95254">
        <ele>379.3</ele>
        <time>2021-09-24T08:43:33Z</time>
      </trkpt>
      <trkpt lat="48.37318" lon="-3.95251">
        <ele>379</ele>
        <time>2021-09-24T08:43:40Z</time>
      </trkpt>
      <trkpt lat="48.37313" lon="-3.9525">
        <ele>379.3</ele>
        <time>2021-09-24T08:43:45Z</time>
      </trkpt>
      <trkpt lat="48.37309" lon="-3.9525">
        <ele>380</ele>
        <time>2021-09-24T08:43:52Z</time>
      </trkpt>
      <trkpt lat="48.37304" lon="-3.9525">
        <ele>380.5</ele>
        <time>2021-09-24T08:44:00Z</time>
      </trkpt>
      <trkpt lat="48.37299" lon="-3.95249">
        <ele>381</ele>
        <time>2021-09-24T08:44:11Z</time>
      </trkpt>
      <trkpt lat="48.37295" lon="-3.95251">
        <ele>383.1</ele>
        <time>2021-09-24T08:45:13Z</time>
      </trkpt>
      <trkpt lat="48.37292" lon="-3.95257">
        <ele>384.3</ele>
        <time>2021-09-24T08:51:56Z</time>
      </trkpt>
      <trkpt lat="48.3729" lon="-3.95264">
        <ele>384</ele>
        <time>2021-09-24T08:52:05Z</time>
      </trkpt>
      <trkpt lat="48.37288" lon="-3.9527">
        <ele>384.6</ele>
        <time>2021-09-24T08:52:13Z</time>
      </trkpt>
      <trkpt lat="48.37284" lon="-3.95274">
        <ele>384.8</ele>
        <time>2021-09-24T08:52:18Z</time>
      </trkpt>
      <trkpt lat="48.3728" lon="-3.95279">
        <ele>385.2</ele>
        <time>2021-09-24T08:52:23Z</time>
      </trkpt>
      <trkpt lat="48.37278" lon="-3.95285">
        <ele>385.9</ele>
        <time>2021-09-24T08:52:30Z</time>
      </trkpt>
      <trkpt lat="48.37276" lon="-3.95291">
        <ele>386.1</ele>
        <time>2021-09-24T08:52:37Z</time>
      </trkpt>
      <trkpt lat="48.37274" lon="-3.95298">
        <ele>385.3</ele>
        <time>2021-09-24T08:52:44Z</time>
      </trkpt>
      <trkpt lat="48.37272" lon="-3.95305">
        <ele>385.1</ele>
        <time>2021-09-24T08:52:50Z</time>
      </trkpt>
      <trkpt lat="48.37269" lon="-3.9531">
        <ele>385</ele>
        <time>2021-09-24T08:52:55Z</time>
      </trkpt>
      <trkpt lat="48.37264" lon="-3.95313">
        <ele>385.2</ele>
        <time>2021-09-24T08:53:01Z</time>
      </trkpt>
      <trkpt lat="48.3726" lon="-3.95318">
        <ele>385.3</ele>
        <time>2021-09-24T08:53:06Z</time>
      </trkpt>
      <trkpt lat="48.37257" lon="-3.95324">
        <ele>385.3</ele>
        <time>2021-09-24T08:53:10Z</time>
      </trkpt>
      <trkpt lat="48.37253" lon="-3.9533">
        <ele>385.5</ele>
        <time>2021-09-24T08:53:14Z</time>
      </trkpt>
      <trkpt lat="48.37249" lon="-3.95334">
        <ele>385.6</ele>
        <time>2021-09-24T08:53:19Z</time>
      </trkpt>
      <trkpt lat="48.37245" lon="-3.95337">
        <ele>385.9</ele>
        <time>2021-09-24T08:53:23Z</time>
      </trkpt>
      <trkpt lat="48.3724" lon="-3.95339">
        <ele>386.3</ele>
        <time>2021-09-24T08:53:28Z</time>
      </trkpt>
      <trkpt lat="48.37235" lon="-3.95341">
        <ele>386.7</ele>
        <time>2021-09-24T08:53:32Z</time>
      </trkpt>
      <trkpt lat="48.3723" lon="-3.95343">
        <ele>387.1</ele>
        <time>2021-09-24T08:53:37Z</time>
      </trkpt>
      <trkpt lat="48.37225" lon="-3.95345">
        <ele>387.4</ele>
        <time>2021-09-24T08:53:41Z</time>
      </trkpt>
      <trkpt lat="48.3722" lon="-3.95347">
        <ele>387.4</ele>
        <time>2021-09-24T08:53:45Z</time>
      </trkpt>
      <trkpt lat="48.37215" lon="-3.95349">
        <ele>387.7</ele>
        <time>2021-09-24T08:53:50Z</time>
      </trkpt>
      <trkpt lat="48.3721" lon="-3.95349">
        <ele>387.7</ele>
        <time>2021-09-24T08:53:54Z</time>
      </trkpt>
      <trkpt lat="48.37204" lon="-3.95349">
        <ele>387.4</ele>
        <time>2021-09-24T08:53:59Z</time>
      </trkpt>
      <trkpt lat="48.37199" lon="-3.9535">
        <ele>387.2</ele>
        <time>2021-09-24T08:54:03Z</time>
      </trkpt>
      <trkpt lat="48.37193" lon="-3.95352">
        <ele>387.1</ele>
        <time>2021-09-24T08:54:07Z</time>
      </trkpt>
      <trkpt lat="48.37189" lon="-3.95355">
        <ele>387</ele>
        <time>2021-09-24T08:54:11Z</time>
      </trkpt>
      <trkpt lat="48.37185" lon="-3.95358">
        <ele>386.9</ele>
        <time>2021-09-24T08:54:16Z</time>
      </trkpt>
      <trkpt lat="48.3718" lon="-3.9536">
        <ele>386.6</ele>
        <time>2021-09-24T08:54:21Z</time>
      </trkpt>
      <trkpt lat="48.37175" lon="-3.95363">
        <ele>386.4</ele>
        <time>2021-09-24T08:54:25Z</time>
      </trkpt>
      <trkpt lat="48.3717" lon="-3.95366">
        <ele>386</ele>
        <time>2021-09-24T08:54:29Z</time>
      </trkpt>
      <trkpt lat="48.37166" lon="-3.95368">
        <ele>385.5</ele>
        <time>2021-09-24T08:54:33Z</time>
      </trkpt>
      <trkpt lat="48.37161" lon="-3.95371">
        <ele>384.8</ele>
        <time>2021-09-24T08:54:37Z</time>
      </trkpt>
      <trkpt lat="48.37155" lon="-3.95375">
        <ele>384.4</ele>
        <time>2021-09-24T08:54:41Z</time>
      </trkpt>
      <trkpt lat="48.37151" lon="-3.95378">
        <ele>384.4</ele>
        <time>2021-09-24T08:54:45Z</time>
      </trkpt>
      <trkpt lat="48.37147" lon="-3.95381">
        <ele>384.6</ele>
        <time>2021-09-24T08:54:49Z</time>
      </trkpt>
      <trkpt lat="48.37141" lon="-3.95385">
        <ele>384.7</ele>
        <time>2021-09-24T08:54:53Z</time>
      </trkpt>
      <trkpt lat="48.37136" lon="-3.95389">
        <ele>384.4</ele>
        <time>2021-09-24T08:54:57Z</time>
      </trkpt>
      <trkpt lat="48.37131" lon="-3.9539">
        <ele>384.2</ele>
        <time>2021-09-24T08:55:01Z</time>
      </trkpt>
      <trkpt lat="48.37126" lon="-3.95391">
        <ele>383.4</ele>
        <time>2021-09-24T08:55:05Z</time>
      </trkpt>
      <trkpt lat="48.37121" lon="-3.95394">
        <ele>382.3</ele>
        <time>2021-09-24T08:55:09Z</time>
      </trkpt>
      <trkpt lat="48.37116" lon="-3.95397">
        <ele>380.9</ele>
        <time>2021-09-24T08:55:13Z</time>
      </trkpt>
      <trkpt lat="48.37112" lon="-3.95401">
        <ele>379.4</ele>
        <time>2021-09-24T08:55:17Z</time>
      </trkpt>
      <trkpt lat="48.37108" lon="-3.95405">
        <ele>377.9</ele>
        <time>2021-09-24T08:55:21Z</time>
      </trkpt>
      <trkpt lat="48.37104" lon="-3.95409">
        <ele>376.2</ele>
        <time>2021-09-24T08:55:26Z</time>
      </trkpt>
      <trkpt lat="48.37099" lon="-3.95411">
        <ele>375.1</ele>
        <time>2021-09-24T08:55:30Z</time>
      </trkpt>
      <trkpt lat="48.37095" lon="-3.95414">
        <ele>374.2</ele>
        <time>2021-09-24T08:55:34Z</time>
      </trkpt>
      <trkpt lat="48.37091" lon="-3.95418">
        <ele>373.9</ele>
        <time>2021-09-24T08:55:38Z</time>
      </trkpt>
      <trkpt lat="48.37087" lon="-3.95421">
        <ele>373.3</ele>
        <time>2021-09-24T08:55:43Z</time>
      </trkpt>
      <trkpt lat="48.37082" lon="-3.95425">
        <ele>372.9</ele>
        <time>2021-09-24T08:55:48Z</time>
      </trkpt>
      <trkpt lat="48.37077" lon="-3.95427">
        <ele>373</ele>
        <time>2021-09-24T08:55:52Z</time>
      </trkpt>
      <trkpt lat="48.37071" lon="-3.95429">
        <ele>373.1</ele>
        <time>2021-09-24T08:55:57Z</time>
      </trkpt>
      <trkpt lat="48.37066" lon="-3.95429">
        <ele>372.8</ele>
        <time>2021-09-24T08:56:01Z</time>
      </trkpt>
      <trkpt lat="48.37062" lon="-3.95431">
        <ele>372.4</ele>
        <time>2021-09-24T08:56:05Z</time>
      </trkpt>
      <trkpt lat="48.37057" lon="-3.95433">
        <ele>371.1</ele>
        <time>2021-09-24T08:56:11Z</time>
      </trkpt>
      <trkpt lat="48.37053" lon="-3.95437">
        <ele>369.9</ele>
        <time>2021-09-24T08:56:17Z</time>
      </trkpt>
      <trkpt lat="48.37048" lon="-3.95439">
        <ele>369.5</ele>
        <time>2021-09-24T08:56:23Z</time>
      </trkpt>
      <trkpt lat="48.37043" lon="-3.95441">
        <ele>369.1</ele>
        <time>2021-09-24T08:56:27Z</time>
      </trkpt>
      <trkpt lat="48.37039" lon="-3.95444">
        <ele>369</ele>
        <time>2021-09-24T08:56:31Z</time>
      </trkpt>
      <trkpt lat="48.37034" lon="-3.95446">
        <ele>369</ele>
        <time>2021-09-24T08:56:35Z</time>
      </trkpt>
      <trkpt lat="48.3703" lon="-3.95448">
        <ele>368.8</ele>
        <time>2021-09-24T08:56:39Z</time>
      </trkpt>
      <trkpt lat="48.37024" lon="-3.9545">
        <ele>368.8</ele>
        <time>2021-09-24T08:56:43Z</time>
      </trkpt>
      <trkpt lat="48.37019" lon="-3.95453">
        <ele>368.9</ele>
        <time>2021-09-24T08:56:47Z</time>
      </trkpt>
      <trkpt lat="48.37016" lon="-3.95457">
        <ele>369.3</ele>
        <time>2021-09-24T08:56:51Z</time>
      </trkpt>
      <trkpt lat="48.37011" lon="-3.95459">
        <ele>369.6</ele>
        <time>2021-09-24T08:56:56Z</time>
      </trkpt>
      <trkpt lat="48.37007" lon="-3.95462">
        <ele>370.1</ele>
        <time>2021-09-24T08:57:00Z</time>
      </trkpt>
      <trkpt lat="48.37002" lon="-3.95463">
        <ele>370.2</ele>
        <time>2021-09-24T08:57:04Z</time>
      </trkpt>
      <trkpt lat="48.36997" lon="-3.95465">
        <ele>370.3</ele>
        <time>2021-09-24T08:57:09Z</time>
      </trkpt>
      <trkpt lat="48.36992" lon="-3.95468">
        <ele>370.1</ele>
        <time>2021-09-24T08:57:14Z</time>
      </trkpt>
      <trkpt lat="48.36988" lon="-3.9547">
        <ele>369.4</ele>
        <time>2021-09-24T08:57:18Z</time>
      </trkpt>
      <trkpt lat="48.36983" lon="-3.95473">
        <ele>369.3</ele>
        <time>2021-09-24T08:57:23Z</time>
      </trkpt>
      <trkpt lat="48.36978" lon="-3.95475">
        <ele>369.4</ele>
        <time>2021-09-24T08:57:28Z</time>
      </trkpt>
      <trkpt lat="48.36973" lon="-3.95476">
        <ele>369.6</ele>
        <time>2021-09-24T08:57:32Z</time>
      </trkpt>
      <trkpt lat="48.36969" lon="-3.95478">
        <ele>369.8</ele>
        <time>2021-09-24T08:57:36Z</time>
      </trkpt>
      <trkpt lat="48.36965" lon="-3.95481">
        <ele>370</ele>
        <time>2021-09-24T08:57:40Z</time>
      </trkpt>
      <trkpt lat="48.3696" lon="-3.95484">
        <ele>370.4</ele>
        <time>2021-09-24T08:57:44Z</time>
      </trkpt>
      <trkpt lat="48.36955" lon="-3.95488">
        <ele>370.5</ele>
        <time>2021-09-24T08:57:49Z</time>
      </trkpt>
      <trkpt lat="48.36951" lon="-3.9549">
        <ele>370.6</ele>
        <time>2021-09-24T08:57:53Z</time>
      </trkpt>
      <trkpt lat="48.36947" lon="-3.95494">
        <ele>370.2</ele>
        <time>2021-09-24T08:57:57Z</time>
      </trkpt>
      <trkpt lat="48.36942" lon="-3.95496">
        <ele>369.6</ele>
        <time>2021-09-24T08:58:02Z</time>
      </trkpt>
      <trkpt lat="48.36937" lon="-3.95498">
        <ele>369.3</ele>
        <time>2021-09-24T08:58:07Z</time>
      </trkpt>
      <trkpt lat="48.36932" lon="-3.95501">
        <ele>368.6</ele>
        <time>2021-09-24T08:58:12Z</time>
      </trkpt>
      <trkpt lat="48.36927" lon="-3.95504">
        <ele>368.3</ele>
        <time>2021-09-24T08:58:17Z</time>
      </trkpt>
      <trkpt lat="48.36922" lon="-3.95505">
        <ele>368.2</ele>
        <time>2021-09-24T08:58:22Z</time>
      </trkpt>
      <trkpt lat="48.36918" lon="-3.95508">
        <ele>368.2</ele>
        <time>2021-09-24T08:58:26Z</time>
      </trkpt>
      <trkpt lat="48.36913" lon="-3.95511">
        <ele>368.4</ele>
        <time>2021-09-24T08:58:31Z</time>
      </trkpt>
      <trkpt lat="48.36909" lon="-3.95515">
        <ele>368.3</ele>
        <time>2021-09-24T08:58:36Z</time>
      </trkpt>
      <trkpt lat="48.36904" lon="-3.95517">
        <ele>368.1</ele>
        <time>2021-09-24T08:58:41Z</time>
      </trkpt>
      <trkpt lat="48.369" lon="-3.9552">
        <ele>368.1</ele>
        <time>2021-09-24T08:58:46Z</time>
      </trkpt>
      <trkpt lat="48.36895" lon="-3.95522">
        <ele>367.8</ele>
        <time>2021-09-24T08:58:50Z</time>
      </trkpt>
      <trkpt lat="48.36891" lon="-3.95525">
        <ele>367.5</ele>
        <time>2021-09-24T08:58:54Z</time>
      </trkpt>
      <trkpt lat="48.36885" lon="-3.95528">
        <ele>367.3</ele>
        <time>2021-09-24T08:58:59Z</time>
      </trkpt>
      <trkpt lat="48.3688" lon="-3.95531">
        <ele>367.2</ele>
        <time>2021-09-24T08:59:03Z</time>
      </trkpt>
      <trkpt lat="48.36875" lon="-3.95534">
        <ele>367</ele>
        <time>2021-09-24T08:59:07Z</time>
      </trkpt>
      <trkpt lat="48.3687" lon="-3.95536">
        <ele>366.9</ele>
        <time>2021-09-24T08:59:11Z</time>
      </trkpt>
      <trkpt lat="48.36865" lon="-3.95538">
        <ele>366.3</ele>
        <time>2021-09-24T08:59:16Z</time>
      </trkpt>
      <trkpt lat="48.36859" lon="-3.95538">
        <ele>365.6</ele>
        <time>2021-09-24T08:59:21Z</time>
      </trkpt>
      <trkpt lat="48.36854" lon="-3.9554">
        <ele>365.3</ele>
        <time>2021-09-24T08:59:25Z</time>
      </trkpt>
      <trkpt lat="48.36849" lon="-3.9554">
        <ele>364.7</ele>
        <time>2021-09-24T08:59:29Z</time>
      </trkpt>
      <trkpt lat="48.36844" lon="-3.9554">
        <ele>363.9</ele>
        <time>2021-09-24T08:59:33Z</time>
      </trkpt>
      <trkpt lat="48.3684" lon="-3.95542">
        <ele>362.9</ele>
        <time>2021-09-24T08:59:37Z</time>
      </trkpt>
      <trkpt lat="48.36835" lon="-3.95543">
        <ele>362.4</ele>
        <time>2021-09-24T08:59:42Z</time>
      </trkpt>
      <trkpt lat="48.36829" lon="-3.95542">
        <ele>362.3</ele>
        <time>2021-09-24T08:59:47Z</time>
      </trkpt>
      <trkpt lat="48.36824" lon="-3.95542">
        <ele>363.3</ele>
        <time>2021-09-24T08:59:52Z</time>
      </trkpt>
      <trkpt lat="48.36819" lon="-3.95543">
        <ele>365.1</ele>
        <time>2021-09-24T08:59:57Z</time>
      </trkpt>
      <trkpt lat="48.36814" lon="-3.95544">
        <ele>366.9</ele>
        <time>2021-09-24T09:00:02Z</time>
      </trkpt>
      <trkpt lat="48.3681" lon="-3.95544">
        <ele>368.4</ele>
        <time>2021-09-24T09:00:06Z</time>
      </trkpt>
      <trkpt lat="48.36804" lon="-3.95545">
        <ele>369.9</ele>
        <time>2021-09-24T09:00:11Z</time>
      </trkpt>
      <trkpt lat="48.36799" lon="-3.95544">
        <ele>370.5</ele>
        <time>2021-09-24T09:00:15Z</time>
      </trkpt>
      <trkpt lat="48.36794" lon="-3.95543">
        <ele>370.6</ele>
        <time>2021-09-24T09:00:20Z</time>
      </trkpt>
      <trkpt lat="48.36789" lon="-3.95545">
        <ele>370.7</ele>
        <time>2021-09-24T09:00:28Z</time>
      </trkpt>
      <trkpt lat="48.36785" lon="-3.95543">
        <ele>370.4</ele>
        <time>2021-09-24T09:07:04Z</time>
      </trkpt>
      <trkpt lat="48.3678" lon="-3.95541">
        <ele>369.3</ele>
        <time>2021-09-24T09:07:09Z</time>
      </trkpt>
      <trkpt lat="48.36775" lon="-3.9554">
        <ele>368.9</ele>
        <time>2021-09-24T09:07:16Z</time>
      </trkpt>
      <trkpt lat="48.3677" lon="-3.95542">
        <ele>369</ele>
        <time>2021-09-24T09:07:21Z</time>
      </trkpt>
      <trkpt lat="48.36765" lon="-3.95544">
        <ele>369.5</ele>
        <time>2021-09-24T09:07:26Z</time>
      </trkpt>
      <trkpt lat="48.36761" lon="-3.95547">
        <ele>369.8</ele>
        <time>2021-09-24T09:07:33Z</time>
      </trkpt>
      <trkpt lat="48.36757" lon="-3.95548">
        <ele>370.2</ele>
        <time>2021-09-24T09:07:39Z</time>
      </trkpt>
      <trkpt lat="48.36752" lon="-3.95548">
        <ele>370.7</ele>
        <time>2021-09-24T09:07:44Z</time>
      </trkpt>
      <trkpt lat="48.36748" lon="-3.95549">
        <ele>371.4</ele>
        <time>2021-09-24T09:07:50Z</time>
      </trkpt>
      <trkpt lat="48.36743" lon="-3.9555">
        <ele>371.5</ele>
        <time>2021-09-24T09:07:55Z</time>
      </trkpt>
      <trkpt lat="48.36738" lon="-3.95549">
        <ele>371.8</ele>
        <time>2021-09-24T09:08:00Z</time>
      </trkpt>
      <trkpt lat="48.36733" lon="-3.95549">
        <ele>372</ele>
        <time>2021-09-24T09:08:06Z</time>
      </trkpt>
      <trkpt lat="48.36728" lon="-3.9555">
        <ele>372</ele>
        <time>2021-09-24T09:08:12Z</time>
      </trkpt>
      <trkpt lat="48.36723" lon="-3.95552">
        <ele>371.5</ele>
        <time>2021-09-24T09:08:17Z</time>
      </trkpt>
      <trkpt lat="48.36718" lon="-3.95553">
        <ele>370.8</ele>
        <time>2021-09-24T09:08:23Z</time>
      </trkpt>
      <trkpt lat="48.36714" lon="-3.95555">
        <ele>370.5</ele>
        <time>2021-09-24T09:08:28Z</time>
      </trkpt>
      <trkpt lat="48.36709" lon="-3.95559">
        <ele>369.9</ele>
        <time>2021-09-24T09:08:33Z</time>
      </trkpt>
      <trkpt lat="48.36704" lon="-3.95562">
        <ele>369.2</ele>
        <time>2021-09-24T09:08:38Z</time>
      </trkpt>
      <trkpt lat="48.36699" lon="-3.95564">
        <ele>368.5</ele>
        <time>2021-09-24T09:08:43Z</time>
      </trkpt>
      <trkpt lat="48.36695" lon="-3.95567">
        <ele>368.6</ele>
        <time>2021-09-24T09:08:48Z</time>
      </trkpt>
      <trkpt lat="48.3669" lon="-3.95568">
        <ele>368.4</ele>
        <time>2021-09-24T09:08:53Z</time>
      </trkpt>
      <trkpt lat="48.36685" lon="-3.95568">
        <ele>367.8</ele>
        <time>2021-09-24T09:08:59Z</time>
      </trkpt>
      <trkpt lat="48.36679" lon="-3.95569">
        <ele>367</ele>
        <time>2021-09-24T09:09:04Z</time>
      </trkpt>
      <trkpt lat="48.36675" lon="-3.95568">
        <ele>365.9</ele>
        <time>2021-09-24T09:09:09Z</time>
      </trkpt>
      <trkpt lat="48.3667" lon="-3.95568">
        <ele>365.2</ele>
        <time>2021-09-24T09:09:15Z</time>
      </trkpt>
      <trkpt lat="48.36666" lon="-3.95569">
        <ele>365.2</ele>
        <time>2021-09-24T09:09:22Z</time>
      </trkpt>
      <trkpt lat="48.36661" lon="-3.95569">
        <ele>365.2</ele>
        <time>2021-09-24T09:09:31Z</time>
      </trkpt>
      <trkpt lat="48.36656" lon="-3.95569">
        <ele>364.1</ele>
        <time>2021-09-24T09:09:43Z</time>
      </trkpt>
      <trkpt lat="48.36652" lon="-3.95572">
        <ele>363.3</ele>
        <time>2021-09-24T09:09:56Z</time>
      </trkpt>
      <trkpt lat="48.36647" lon="-3.95569">
        <ele>363</ele>
        <time>2021-09-24T09:10:05Z</time>
      </trkpt>
      <trkpt lat="48.36643" lon="-3.95572">
        <ele>362.4</ele>
        <time>2021-09-24T09:10:17Z</time>
      </trkpt>
      <trkpt lat="48.3664" lon="-3.95577">
        <ele>362</ele>
        <time>2021-09-24T09:10:27Z</time>
      </trkpt>
      <trkpt lat="48.36635" lon="-3.95578">
        <ele>361.9</ele>
        <time>2021-09-24T09:10:35Z</time>
      </trkpt>
      <trkpt lat="48.36632" lon="-3.95574">
        <ele>361.7</ele>
        <time>2021-09-24T09:10:40Z</time>
      </trkpt>
      <trkpt lat="48.36628" lon="-3.95573">
        <ele>361.1</ele>
        <time>2021-09-24T09:10:46Z</time>
      </trkpt>
      <trkpt lat="48.36623" lon="-3.95574">
        <ele>359.5</ele>
        <time>2021-09-24T09:10:55Z</time>
      </trkpt>
      <trkpt lat="48.36618" lon="-3.95575">
        <ele>358</ele>
        <time>2021-09-24T09:11:04Z</time>
      </trkpt>
      <trkpt lat="48.36613" lon="-3.95575">
        <ele>356.6</ele>
        <time>2021-09-24T09:11:11Z</time>
      </trkpt>
      <trkpt lat="48.36608" lon="-3.95575">
        <ele>355.8</ele>
        <time>2021-09-24T09:11:16Z</time>
      </trkpt>
      <trkpt lat="48.36604" lon="-3.95578">
        <ele>355.2</ele>
        <time>2021-09-24T09:11:22Z</time>
      </trkpt>
      <trkpt lat="48.366" lon="-3.9558">
        <ele>354.7</ele>
        <time>2021-09-24T09:11:26Z</time>
      </trkpt>
      <trkpt lat="48.36596" lon="-3.95583">
        <ele>354.2</ele>
        <time>2021-09-24T09:11:31Z</time>
      </trkpt>
      <trkpt lat="48.36591" lon="-3.95584">
        <ele>353.8</ele>
        <time>2021-09-24T09:11:38Z</time>
      </trkpt>
      <trkpt lat="48.36586" lon="-3.95586">
        <ele>353.3</ele>
        <time>2021-09-24T09:11:43Z</time>
      </trkpt>
      <trkpt lat="48.36582" lon="-3.95585">
        <ele>352.8</ele>
        <time>2021-09-24T09:11:49Z</time>
      </trkpt>
      <trkpt lat="48.36577" lon="-3.95586">
        <ele>352.1</ele>
        <time>2021-09-24T09:12:00Z</time>
      </trkpt>
      <trkpt lat="48.36573" lon="-3.95588">
        <ele>351.7</ele>
        <time>2021-09-24T09:12:08Z</time>
      </trkpt>
      <trkpt lat="48.36568" lon="-3.95589">
        <ele>351.3</ele>
        <time>2021-09-24T09:12:14Z</time>
      </trkpt>
      <trkpt lat="48.36564" lon="-3.95588">
        <ele>350.6</ele>
        <time>2021-09-24T09:12:19Z</time>
      </trkpt>
      <trkpt lat="48.36559" lon="-3.95589">
        <ele>349.9</ele>
        <time>2021-09-24T09:12:26Z</time>
      </trkpt>
      <trkpt lat="48.36555" lon="-3.95593">
        <ele>349</ele>
        <time>2021-09-24T09:12:31Z</time>
      </trkpt>
      <trkpt lat="48.36552" lon="-3.95597">
        <ele>347.5</ele>
        <time>2021-09-24T09:12:39Z</time>
      </trkpt>
      <trkpt lat="48.36547" lon="-3.95601">
        <ele>346.6</ele>
        <time>2021-09-24T09:12:44Z</time>
      </trkpt>
      <trkpt lat="48.36543" lon="-3.95604">
        <ele>345.9</ele>
        <time>2021-09-24T09:12:49Z</time>
      </trkpt>
      <trkpt lat="48.36538" lon="-3.95606">
        <ele>345</ele>
        <time>2021-09-24T09:12:55Z</time>
      </trkpt>
      <trkpt lat="48.36534" lon="-3.9561">
        <ele>344.6</ele>
        <time>2021-09-24T09:13:00Z</time>
      </trkpt>
      <trkpt lat="48.36529" lon="-3.95614">
        <ele>343.9</ele>
        <time>2021-09-24T09:13:06Z</time>
      </trkpt>
      <trkpt lat="48.36524" lon="-3.95617">
        <ele>342.9</ele>
        <time>2021-09-24T09:13:12Z</time>
      </trkpt>
      <trkpt lat="48.3652" lon="-3.95619">
        <ele>342.5</ele>
        <time>2021-09-24T09:13:17Z</time>
      </trkpt>
      <trkpt lat="48.36515" lon="-3.95619">
        <ele>342.2</ele>
        <time>2021-09-24T09:13:23Z</time>
      </trkpt>
      <trkpt lat="48.3651" lon="-3.95621">
        <ele>341.4</ele>
        <time>2021-09-24T09:13:31Z</time>
      </trkpt>
      <trkpt lat="48.36506" lon="-3.95625">
        <ele>339</ele>
        <time>2021-09-24T09:18:09Z</time>
      </trkpt>
      <trkpt lat="48.36508" lon="-3.95631">
        <ele>340.6</ele>
        <time>2021-09-24T09:19:13Z</time>
      </trkpt>
      <trkpt lat="48.36506" lon="-3.95638">
        <ele>340.9</ele>
        <time>2021-09-24T09:19:20Z</time>
      </trkpt>
      <trkpt lat="48.36505" lon="-3.95646">
        <ele>340.3</ele>
        <time>2021-09-24T09:19:26Z</time>
      </trkpt>
      <trkpt lat="48.36503" lon="-3.95653">
        <ele>340.2</ele>
        <time>2021-09-24T09:19:34Z</time>
      </trkpt>
      <trkpt lat="48.36502" lon="-3.9566">
        <ele>339.7</ele>
        <time>2021-09-24T09:19:40Z</time>
      </trkpt>
      <trkpt lat="48.36502" lon="-3.95667">
        <ele>338.7</ele>
        <time>2021-09-24T09:19:48Z</time>
      </trkpt>
      <trkpt lat="48.36501" lon="-3.95675">
        <ele>337.8</ele>
        <time>2021-09-24T09:19:53Z</time>
      </trkpt>
      <trkpt lat="48.365" lon="-3.95683">
        <ele>337.3</ele>
        <time>2021-09-24T09:19:58Z</time>
      </trkpt>
      <trkpt lat="48.36498" lon="-3.95689">
        <ele>337.2</ele>
        <time>2021-09-24T09:20:02Z</time>
      </trkpt>
      <trkpt lat="48.36496" lon="-3.95696">
        <ele>337.6</ele>
        <time>2021-09-24T09:20:07Z</time>
      </trkpt>
      <trkpt lat="48.36494" lon="-3.95702">
        <ele>338.4</ele>
        <time>2021-09-24T09:20:11Z</time>
      </trkpt>
      <trkpt lat="48.36491" lon="-3.95709">
        <ele>339.2</ele>
        <time>2021-09-24T09:20:16Z</time>
      </trkpt>
      <trkpt lat="48.36488" lon="-3.95715">
        <ele>339.5</ele>
        <time>2021-09-24T09:20:21Z</time>
      </trkpt>
      <trkpt lat="48.36484" lon="-3.95719">
        <ele>339.9</ele>
        <time>2021-09-24T09:20:25Z</time>
      </trkpt>
      <trkpt lat="48.36479" lon="-3.95722">
        <ele>339.5</ele>
        <time>2021-09-24T09:20:30Z</time>
      </trkpt>
      <trkpt lat="48.36475" lon="-3.95725">
        <ele>339</ele>
        <time>2021-09-24T09:20:35Z</time>
      </trkpt>
      <trkpt lat="48.3647" lon="-3.95729">
        <ele>338.8</ele>
        <time>2021-09-24T09:20:40Z</time>
      </trkpt>
      <trkpt lat="48.36465" lon="-3.95732">
        <ele>338.6</ele>
        <time>2021-09-24T09:20:44Z</time>
      </trkpt>
      <trkpt lat="48.36461" lon="-3.95737">
        <ele>338.5</ele>
        <time>2021-09-24T09:20:49Z</time>
      </trkpt>
      <trkpt lat="48.36457" lon="-3.95741">
        <ele>338.4</ele>
        <time>2021-09-24T09:20:54Z</time>
      </trkpt>
      <trkpt lat="48.36452" lon="-3.95744">
        <ele>337.9</ele>
        <time>2021-09-24T09:21:00Z</time>
      </trkpt>
      <trkpt lat="48.36448" lon="-3.95749">
        <ele>337.6</ele>
        <time>2021-09-24T09:21:05Z</time>
      </trkpt>
      <trkpt lat="48.36444" lon="-3.95753">
        <ele>337.2</ele>
        <time>2021-09-24T09:21:09Z</time>
      </trkpt>
      <trkpt lat="48.36441" lon="-3.95758">
        <ele>336.7</ele>
        <time>2021-09-24T09:21:13Z</time>
      </trkpt>
      <trkpt lat="48.36437" lon="-3.95763">
        <ele>336.3</ele>
        <time>2021-09-24T09:21:17Z</time>
      </trkpt>
      <trkpt lat="48.36434" lon="-3.95768">
        <ele>336</ele>
        <time>2021-09-24T09:21:21Z</time>
      </trkpt>
      <trkpt lat="48.3643" lon="-3.95772">
        <ele>335.8</ele>
        <time>2021-09-24T09:21:25Z</time>
      </trkpt>
      <trkpt lat="48.36427" lon="-3.95777">
        <ele>335.6</ele>
        <time>2021-09-24T09:21:28Z</time>
      </trkpt>
      <trkpt lat="48.36422" lon="-3.95782">
        <ele>335.4</ele>
        <time>2021-09-24T09:21:32Z</time>
      </trkpt>
      <trkpt lat="48.36419" lon="-3.95788">
        <ele>334.6</ele>
        <time>2021-09-24T09:21:37Z</time>
      </trkpt>
      <trkpt lat="48.36416" lon="-3.95794">
        <ele>333.7</ele>
        <time>2021-09-24T09:21:42Z</time>
      </trkpt>
      <trkpt lat="48.36412" lon="-3.958">
        <ele>332.7</ele>
        <time>2021-09-24T09:21:48Z</time>
      </trkpt>
      <trkpt lat="48.36408" lon="-3.95805">
        <ele>332.5</ele>
        <time>2021-09-24T09:21:52Z</time>
      </trkpt>
      <trkpt lat="48.36405" lon="-3.95811">
        <ele>332.7</ele>
        <time>2021-09-24T09:21:59Z</time>
      </trkpt>
      <trkpt lat="48.36402" lon="-3.95817">
        <ele>329.5</ele>
        <time>2021-09-24T09:22:58Z</time>
      </trkpt>
      <trkpt lat="48.364" lon="-3.95823">
        <ele>328</ele>
        <time>2021-09-24T09:23:45Z</time>
      </trkpt>
      <trkpt lat="48.36396" lon="-3.95829">
        <ele>328.2</ele>
        <time>2021-09-24T09:23:50Z</time>
      </trkpt>
      <trkpt lat="48.36392" lon="-3.95833">
        <ele>328.3</ele>
        <time>2021-09-24T09:23:56Z</time>
      </trkpt>
      <trkpt lat="48.36388" lon="-3.95835">
        <ele>327.7</ele>
        <time>2021-09-24T09:24:13Z</time>
      </trkpt>
      <trkpt lat="48.36384" lon="-3.95839">
        <ele>327</ele>
        <time>2021-09-24T09:24:19Z</time>
      </trkpt>
      <trkpt lat="48.36381" lon="-3.95846">
        <ele>327.3</ele>
        <time>2021-09-24T09:24:39Z</time>
      </trkpt>
      <trkpt lat="48.36376" lon="-3.95849">
        <ele>327</ele>
        <time>2021-09-24T09:24:45Z</time>
      </trkpt>
      <trkpt lat="48.36373" lon="-3.95853">
        <ele>326.6</ele>
        <time>2021-09-24T09:24:51Z</time>
      </trkpt>
      <trkpt lat="48.3637" lon="-3.95859">
        <ele>325.5</ele>
        <time>2021-09-24T09:24:57Z</time>
      </trkpt>
      <trkpt lat="48.36366" lon="-3.95863">
        <ele>324.9</ele>
        <time>2021-09-24T09:25:03Z</time>
      </trkpt>
      <trkpt lat="48.36363" lon="-3.95868">
        <ele>324.6</ele>
        <time>2021-09-24T09:25:08Z</time>
      </trkpt>
      <trkpt lat="48.36359" lon="-3.95874">
        <ele>324.8</ele>
        <time>2021-09-24T09:25:13Z</time>
      </trkpt>
      <trkpt lat="48.36355" lon="-3.95879">
        <ele>324.6</ele>
        <time>2021-09-24T09:25:18Z</time>
      </trkpt>
      <trkpt lat="48.36351" lon="-3.95883">
        <ele>324.7</ele>
        <time>2021-09-24T09:25:23Z</time>
      </trkpt>
      <trkpt lat="48.36347" lon="-3.95887">
        <ele>324.8</ele>
        <time>2021-09-24T09:25:28Z</time>
      </trkpt>
      <trkpt lat="48.36343" lon="-3.95891">
        <ele>324.9</ele>
        <time>2021-09-24T09:25:33Z</time>
      </trkpt>
      <trkpt lat="48.36339" lon="-3.95895">
        <ele>325.5</ele>
        <time>2021-09-24T09:25:37Z</time>
      </trkpt>
      <trkpt lat="48.36336" lon="-3.959">
        <ele>326</ele>
        <time>2021-09-24T09:25:41Z</time>
      </trkpt>
      <trkpt lat="48.36331" lon="-3.95904">
        <ele>326.2</ele>
        <time>2021-09-24T09:25:45Z</time>
      </trkpt>
      <trkpt lat="48.36327" lon="-3.95909">
        <ele>327</ele>
        <time>2021-09-24T09:25:49Z</time>
      </trkpt>
      <trkpt lat="48.36323" lon="-3.95913">
        <ele>327.2</ele>
        <time>2021-09-24T09:25:53Z</time>
      </trkpt>
      <trkpt lat="48.36318" lon="-3.95917">
        <ele>326.7</ele>
        <time>2021-09-24T09:25:58Z</time>
      </trkpt>
      <trkpt lat="48.36314" lon="-3.9592">
        <ele>326</ele>
        <time>2021-09-24T09:26:02Z</time>
      </trkpt>
      <trkpt lat="48.3631" lon="-3.95924">
        <ele>325.3</ele>
        <time>2021-09-24T09:26:06Z</time>
      </trkpt>
      <trkpt lat="48.36306" lon="-3.95927">
        <ele>325.1</ele>
        <time>2021-09-24T09:26:10Z</time>
      </trkpt>
      <trkpt lat="48.363" lon="-3.95929">
        <ele>324.3</ele>
        <time>2021-09-24T09:26:15Z</time>
      </trkpt>
      <trkpt lat="48.36296" lon="-3.95931">
        <ele>323.4</ele>
        <time>2021-09-24T09:26:19Z</time>
      </trkpt>
      <trkpt lat="48.36291" lon="-3.95935">
        <ele>322.6</ele>
        <time>2021-09-24T09:26:24Z</time>
      </trkpt>
      <trkpt lat="48.36287" lon="-3.95938">
        <ele>322.2</ele>
        <time>2021-09-24T09:26:28Z</time>
      </trkpt>
      <trkpt lat="48.36282" lon="-3.9594">
        <ele>321.6</ele>
        <time>2021-09-24T09:26:32Z</time>
      </trkpt>
      <trkpt lat="48.36278" lon="-3.95942">
        <ele>321</ele>
        <time>2021-09-24T09:26:36Z</time>
      </trkpt>
      <trkpt lat="48.36274" lon="-3.95946">
        <ele>320.3</ele>
        <time>2021-09-24T09:26:41Z</time>
      </trkpt>
      <trkpt lat="48.36269" lon="-3.95949">
        <ele>319.8</ele>
        <time>2021-09-24T09:26:45Z</time>
      </trkpt>
      <trkpt lat="48.36265" lon="-3.95952">
        <ele>319.9</ele>
        <time>2021-09-24T09:26:50Z</time>
      </trkpt>
      <trkpt lat="48.3626" lon="-3.95954">
        <ele>320.2</ele>
        <time>2021-09-24T09:26:55Z</time>
      </trkpt>
      <trkpt lat="48.36255" lon="-3.95957">
        <ele>320.5</ele>
        <time>2021-09-24T09:27:00Z</time>
      </trkpt>
      <trkpt lat="48.3625" lon="-3.9596">
        <ele>320.7</ele>
        <time>2021-09-24T09:27:06Z</time>
      </trkpt>
      <trkpt lat="48.36245" lon="-3.95962">
        <ele>320.9</ele>
        <time>2021-09-24T09:27:10Z</time>
      </trkpt>
      <trkpt lat="48.3624" lon="-3.95966">
        <ele>320.7</ele>
        <time>2021-09-24T09:27:14Z</time>
      </trkpt>
      <trkpt lat="48.36236" lon="-3.95969">
        <ele>320.3</ele>
        <time>2021-09-24T09:27:18Z</time>
      </trkpt>
      <trkpt lat="48.36231" lon="-3.95971">
        <ele>320.2</ele>
        <time>2021-09-24T09:27:23Z</time>
      </trkpt>
      <trkpt lat="48.36227" lon="-3.95974">
        <ele>320.2</ele>
        <time>2021-09-24T09:27:31Z</time>
      </trkpt>
      <trkpt lat="48.36222" lon="-3.95978">
        <ele>319.7</ele>
        <time>2021-09-24T09:27:39Z</time>
      </trkpt>
      <trkpt lat="48.36217" lon="-3.9598">
        <ele>319.3</ele>
        <time>2021-09-24T09:27:44Z</time>
      </trkpt>
      <trkpt lat="48.36213" lon="-3.95984">
        <ele>319.1</ele>
        <time>2021-09-24T09:27:49Z</time>
      </trkpt>
      <trkpt lat="48.36209" lon="-3.95987">
        <ele>318.8</ele>
        <time>2021-09-24T09:27:54Z</time>
      </trkpt>
      <trkpt lat="48.36204" lon="-3.9599">
        <ele>318.8</ele>
        <time>2021-09-24T09:27:59Z</time>
      </trkpt>
      <trkpt lat="48.362" lon="-3.95995">
        <ele>319.2</ele>
        <time>2021-09-24T09:28:04Z</time>
      </trkpt>
      <trkpt lat="48.36195" lon="-3.95998">
        <ele>319.2</ele>
        <time>2021-09-24T09:28:08Z</time>
      </trkpt>
      <trkpt lat="48.3619" lon="-3.96">
        <ele>319.2</ele>
        <time>2021-09-24T09:28:13Z</time>
      </trkpt>
      <trkpt lat="48.36186" lon="-3.96003">
        <ele>318.9</ele>
        <time>2021-09-24T09:28:18Z</time>
      </trkpt>
      <trkpt lat="48.36181" lon="-3.96006">
        <ele>318.9</ele>
        <time>2021-09-24T09:28:23Z</time>
      </trkpt>
      <trkpt lat="48.36177" lon="-3.96008">
        <ele>319</ele>
        <time>2021-09-24T09:28:27Z</time>
      </trkpt>
      <trkpt lat="48.36172" lon="-3.96011">
        <ele>318.7</ele>
        <time>2021-09-24T09:28:31Z</time>
      </trkpt>
      <trkpt lat="48.36168" lon="-3.96014">
        <ele>318.4</ele>
        <time>2021-09-24T09:28:35Z</time>
      </trkpt>
      <trkpt lat="48.36164" lon="-3.96018">
        <ele>318.5</ele>
        <time>2021-09-24T09:28:40Z</time>
      </trkpt>
      <trkpt lat="48.3616" lon="-3.96022">
        <ele>319.4</ele>
        <time>2021-09-24T09:29:31Z</time>
      </trkpt>
      <trkpt lat="48.36157" lon="-3.96027">
        <ele>319</ele>
        <time>2021-09-24T09:29:37Z</time>
      </trkpt>
      <trkpt lat="48.36153" lon="-3.9603">
        <ele>318.5</ele>
        <time>2021-09-24T09:29:42Z</time>
      </trkpt>
      <trkpt lat="48.36148" lon="-3.96034">
        <ele>318.5</ele>
        <time>2021-09-24T09:29:47Z</time>
      </trkpt>
      <trkpt lat="48.36144" lon="-3.96038">
        <ele>318</ele>
        <time>2021-09-24T09:29:51Z</time>
      </trkpt>
      <trkpt lat="48.3614" lon="-3.96042">
        <ele>318</ele>
        <time>2021-09-24T09:29:56Z</time>
      </trkpt>
      <trkpt lat="48.36135" lon="-3.96044">
        <ele>318</ele>
        <time>2021-09-24T09:30:01Z</time>
      </trkpt>
      <trkpt lat="48.3613" lon="-3.96046">
        <ele>317.6</ele>
        <time>2021-09-24T09:30:06Z</time>
      </trkpt>
      <trkpt lat="48.36125" lon="-3.9605">
        <ele>317.7</ele>
        <time>2021-09-24T09:30:10Z</time>
      </trkpt>
      <trkpt lat="48.36121" lon="-3.96052">
        <ele>317.8</ele>
        <time>2021-09-24T09:30:14Z</time>
      </trkpt>
      <trkpt lat="48.36116" lon="-3.96056">
        <ele>317.6</ele>
        <time>2021-09-24T09:30:19Z</time>
      </trkpt>
      <trkpt lat="48.36111" lon="-3.96059">
        <ele>317.7</ele>
        <time>2021-09-24T09:30:25Z</time>
      </trkpt>
      <trkpt lat="48.36107" lon="-3.96062">
        <ele>317.8</ele>
        <time>2021-09-24T09:30:30Z</time>
      </trkpt>
      <trkpt lat="48.36103" lon="-3.96065">
        <ele>318.2</ele>
        <time>2021-09-24T09:30:34Z</time>
      </trkpt>
      <trkpt lat="48.36098" lon="-3.96069">
        <ele>318.1</ele>
        <time>2021-09-24T09:30:38Z</time>
      </trkpt>
      <trkpt lat="48.36094" lon="-3.96072">
        <ele>317.8</ele>
        <time>2021-09-24T09:30:42Z</time>
      </trkpt>
      <trkpt lat="48.36089" lon="-3.96074">
        <ele>317.6</ele>
        <time>2021-09-24T09:30:47Z</time>
      </trkpt>
      <trkpt lat="48.36084" lon="-3.96074">
        <ele>317.3</ele>
        <time>2021-09-24T09:30:52Z</time>
      </trkpt>
      <trkpt lat="48.36079" lon="-3.96075">
        <ele>317.1</ele>
        <time>2021-09-24T09:30:56Z</time>
      </trkpt>
      <trkpt lat="48.36074" lon="-3.96075">
        <ele>317.3</ele>
        <time>2021-09-24T09:31:01Z</time>
      </trkpt>
      <trkpt lat="48.36069" lon="-3.96075">
        <ele>317</ele>
        <time>2021-09-24T09:31:06Z</time>
      </trkpt>
      <trkpt lat="48.36064" lon="-3.96075">
        <ele>316.6</ele>
        <time>2021-09-24T09:31:11Z</time>
      </trkpt>
      <trkpt lat="48.36058" lon="-3.96075">
        <ele>315.9</ele>
        <time>2021-09-24T09:31:16Z</time>
      </trkpt>
      <trkpt lat="48.36053" lon="-3.96076">
        <ele>315.1</ele>
        <time>2021-09-24T09:31:21Z</time>
      </trkpt>
      <trkpt lat="48.36047" lon="-3.96077">
        <ele>314.4</ele>
        <time>2021-09-24T09:31:25Z</time>
      </trkpt>
      <trkpt lat="48.36042" lon="-3.96079">
        <ele>314</ele>
        <time>2021-09-24T09:31:29Z</time>
      </trkpt>
      <trkpt lat="48.36038" lon="-3.9608">
        <ele>313.9</ele>
        <time>2021-09-24T09:31:33Z</time>
      </trkpt>
      <trkpt lat="48.36033" lon="-3.96081">
        <ele>314.1</ele>
        <time>2021-09-24T09:31:38Z</time>
      </trkpt>
      <trkpt lat="48.36028" lon="-3.96083">
        <ele>314.2</ele>
        <time>2021-09-24T09:31:42Z</time>
      </trkpt>
      <trkpt lat="48.36023" lon="-3.96085">
        <ele>314.2</ele>
        <time>2021-09-24T09:31:46Z</time>
      </trkpt>
      <trkpt lat="48.36018" lon="-3.96084">
        <ele>313.8</ele>
        <time>2021-09-24T09:31:51Z</time>
      </trkpt>
      <trkpt lat="48.36013" lon="-3.96084">
        <ele>313.3</ele>
        <time>2021-09-24T09:31:57Z</time>
      </trkpt>
      <trkpt lat="48.36008" lon="-3.96084">
        <ele>313</ele>
        <time>2021-09-24T09:32:01Z</time>
      </trkpt>
      <trkpt lat="48.36003" lon="-3.96086">
        <ele>312.9</ele>
        <time>2021-09-24T09:32:06Z</time>
      </trkpt>
      <trkpt lat="48.35998" lon="-3.96087">
        <ele>312.2</ele>
        <time>2021-09-24T09:32:11Z</time>
      </trkpt>
      <trkpt lat="48.35994" lon="-3.96092">
        <ele>311.7</ele>
        <time>2021-09-24T09:32:18Z</time>
      </trkpt>
      <trkpt lat="48.3599" lon="-3.96093">
        <ele>311.3</ele>
        <time>2021-09-24T09:32:26Z</time>
      </trkpt>
      <trkpt lat="48.35985" lon="-3.96091">
        <ele>311.4</ele>
        <time>2021-09-24T09:32:44Z</time>
      </trkpt>
      <trkpt lat="48.35981" lon="-3.96094">
        <ele>310.9</ele>
        <time>2021-09-24T09:32:48Z</time>
      </trkpt>
      <trkpt lat="48.35976" lon="-3.96096">
        <ele>310.5</ele>
        <time>2021-09-24T09:32:57Z</time>
      </trkpt>
      <trkpt lat="48.35972" lon="-3.96098">
        <ele>310.6</ele>
        <time>2021-09-24T09:33:01Z</time>
      </trkpt>
      <trkpt lat="48.35967" lon="-3.96099">
        <ele>310.5</ele>
        <time>2021-09-24T09:33:08Z</time>
      </trkpt>
      <trkpt lat="48.35963" lon="-3.96104">
        <ele>309.9</ele>
        <time>2021-09-24T09:33:14Z</time>
      </trkpt>
      <trkpt lat="48.35958" lon="-3.96108">
        <ele>309.5</ele>
        <time>2021-09-24T09:33:19Z</time>
      </trkpt>
      <trkpt lat="48.35954" lon="-3.96109">
        <ele>309.8</ele>
        <time>2021-09-24T09:33:22Z</time>
      </trkpt>
      <trkpt lat="48.35949" lon="-3.9611">
        <ele>311</ele>
        <time>2021-09-24T09:33:27Z</time>
      </trkpt>
      <trkpt lat="48.35944" lon="-3.9611">
        <ele>313.2</ele>
        <time>2021-09-24T09:33:35Z</time>
      </trkpt>
      <trkpt lat="48.35939" lon="-3.96112">
        <ele>314.9</ele>
        <time>2021-09-24T09:33:41Z</time>
      </trkpt>
      <trkpt lat="48.35934" lon="-3.9611">
        <ele>315.6</ele>
        <time>2021-09-24T09:33:46Z</time>
      </trkpt>
      <trkpt lat="48.35929" lon="-3.9611">
        <ele>315.9</ele>
        <time>2021-09-24T09:33:54Z</time>
      </trkpt>
      <trkpt lat="48.35925" lon="-3.96106">
        <ele>315.2</ele>
        <time>2021-09-24T09:34:02Z</time>
      </trkpt>
      <trkpt lat="48.3592" lon="-3.96104">
        <ele>310.8</ele>
        <time>2021-09-24T09:35:51Z</time>
      </trkpt>
      <trkpt lat="48.35915" lon="-3.96101">
        <ele>309.1</ele>
        <time>2021-09-24T09:35:57Z</time>
      </trkpt>
      <trkpt lat="48.3591" lon="-3.96099">
        <ele>307.6</ele>
        <time>2021-09-24T09:36:02Z</time>
      </trkpt>
      <trkpt lat="48.35906" lon="-3.96099">
        <ele>306.7</ele>
        <time>2021-09-24T09:36:06Z</time>
      </trkpt>
      <trkpt lat="48.35901" lon="-3.961">
        <ele>306.9</ele>
        <time>2021-09-24T09:36:12Z</time>
      </trkpt>
      <trkpt lat="48.35895" lon="-3.961">
        <ele>307.8</ele>
        <time>2021-09-24T09:36:18Z</time>
      </trkpt>
      <trkpt lat="48.35891" lon="-3.96098">
        <ele>307.7</ele>
        <time>2021-09-24T09:36:24Z</time>
      </trkpt>
      <trkpt lat="48.35886" lon="-3.96096">
        <ele>306.8</ele>
        <time>2021-09-24T09:36:29Z</time>
      </trkpt>
      <trkpt lat="48.3588" lon="-3.96095">
        <ele>306.5</ele>
        <time>2021-09-24T09:36:34Z</time>
      </trkpt>
      <trkpt lat="48.35875" lon="-3.96095">
        <ele>306.1</ele>
        <time>2021-09-24T09:36:39Z</time>
      </trkpt>
      <trkpt lat="48.3587" lon="-3.96095">
        <ele>305.8</ele>
        <time>2021-09-24T09:36:44Z</time>
      </trkpt>
      <trkpt lat="48.35865" lon="-3.96094">
        <ele>305.7</ele>
        <time>2021-09-24T09:36:49Z</time>
      </trkpt>
      <trkpt lat="48.3586" lon="-3.96092">
        <ele>305.1</ele>
        <time>2021-09-24T09:36:54Z</time>
      </trkpt>
      <trkpt lat="48.35856" lon="-3.9609">
        <ele>304.1</ele>
        <time>2021-09-24T09:36:58Z</time>
      </trkpt>
      <trkpt lat="48.35851" lon="-3.96089">
        <ele>303.3</ele>
        <time>2021-09-24T09:37:02Z</time>
      </trkpt>
      <trkpt lat="48.35846" lon="-3.96088">
        <ele>302.8</ele>
        <time>2021-09-24T09:37:07Z</time>
      </trkpt>
      <trkpt lat="48.3584" lon="-3.96089">
        <ele>302.8</ele>
        <time>2021-09-24T09:37:11Z</time>
      </trkpt>
      <trkpt lat="48.35835" lon="-3.9609">
        <ele>303</ele>
        <time>2021-09-24T09:37:17Z</time>
      </trkpt>
      <trkpt lat="48.3583" lon="-3.9609">
        <ele>303.3</ele>
        <time>2021-09-24T09:37:23Z</time>
      </trkpt>
      <trkpt lat="48.35825" lon="-3.9609">
        <ele>303.4</ele>
        <time>2021-09-24T09:37:28Z</time>
      </trkpt>
      <trkpt lat="48.3582" lon="-3.9609">
        <ele>303.2</ele>
        <time>2021-09-24T09:37:33Z</time>
      </trkpt>
      <trkpt lat="48.35815" lon="-3.96092">
        <ele>303</ele>
        <time>2021-09-24T09:37:39Z</time>
      </trkpt>
      <trkpt lat="48.3581" lon="-3.96094">
        <ele>303</ele>
        <time>2021-09-24T09:37:44Z</time>
      </trkpt>
      <trkpt lat="48.35805" lon="-3.96094">
        <ele>303.2</ele>
        <time>2021-09-24T09:37:49Z</time>
      </trkpt>
      <trkpt lat="48.35801" lon="-3.96093">
        <ele>302.8</ele>
        <time>2021-09-24T09:37:54Z</time>
      </trkpt>
      <trkpt lat="48.35796" lon="-3.96094">
        <ele>302.2</ele>
        <time>2021-09-24T09:38:00Z</time>
      </trkpt>
      <trkpt lat="48.35791" lon="-3.96095">
        <ele>301.5</ele>
        <time>2021-09-24T09:38:05Z</time>
      </trkpt>
      <trkpt lat="48.35785" lon="-3.96093">
        <ele>301.6</ele>
        <time>2021-09-24T09:38:10Z</time>
      </trkpt>
      <trkpt lat="48.3578" lon="-3.96093">
        <ele>301.7</ele>
        <time>2021-09-24T09:38:15Z</time>
      </trkpt>
      <trkpt lat="48.35775" lon="-3.96093">
        <ele>301.7</ele>
        <time>2021-09-24T09:38:19Z</time>
      </trkpt>
      <trkpt lat="48.3577" lon="-3.96094">
        <ele>301.4</ele>
        <time>2021-09-24T09:38:23Z</time>
      </trkpt>
      <trkpt lat="48.35766" lon="-3.96096">
        <ele>301.6</ele>
        <time>2021-09-24T09:38:28Z</time>
      </trkpt>
      <trkpt lat="48.35761" lon="-3.96098">
        <ele>302</ele>
        <time>2021-09-24T09:38:33Z</time>
      </trkpt>
      <trkpt lat="48.35756" lon="-3.961">
        <ele>302.2</ele>
        <time>2021-09-24T09:38:37Z</time>
      </trkpt>
      <trkpt lat="48.35751" lon="-3.96099">
        <ele>301.8</ele>
        <time>2021-09-24T09:38:42Z</time>
      </trkpt>
      <trkpt lat="48.35746" lon="-3.96098">
        <ele>300.8</ele>
        <time>2021-09-24T09:38:47Z</time>
      </trkpt>
      <trkpt lat="48.35741" lon="-3.96096">
        <ele>300</ele>
        <time>2021-09-24T09:38:51Z</time>
      </trkpt>
      <trkpt lat="48.35736" lon="-3.96096">
        <ele>299.5</ele>
        <time>2021-09-24T09:38:55Z</time>
      </trkpt>
      <trkpt lat="48.35731" lon="-3.96095">
        <ele>299.2</ele>
        <time>2021-09-24T09:38:58Z</time>
      </trkpt>
      <trkpt lat="48.35726" lon="-3.96095">
        <ele>298.9</ele>
        <time>2021-09-24T09:39:01Z</time>
      </trkpt>
      <trkpt lat="48.35721" lon="-3.96096">
        <ele>298.4</ele>
        <time>2021-09-24T09:39:05Z</time>
      </trkpt>
      <trkpt lat="48.35716" lon="-3.96095">
        <ele>298.2</ele>
        <time>2021-09-24T09:39:09Z</time>
      </trkpt>
      <trkpt lat="48.3571" lon="-3.96096">
        <ele>298.6</ele>
        <time>2021-09-24T09:39:14Z</time>
      </trkpt>
      <trkpt lat="48.35705" lon="-3.96098">
        <ele>299.2</ele>
        <time>2021-09-24T09:39:18Z</time>
      </trkpt>
      <trkpt lat="48.357" lon="-3.96099">
        <ele>299.8</ele>
        <time>2021-09-24T09:39:23Z</time>
      </trkpt>
      <trkpt lat="48.35695" lon="-3.961">
        <ele>299.5</ele>
        <time>2021-09-24T09:39:29Z</time>
      </trkpt>
      <trkpt lat="48.3569" lon="-3.96099">
        <ele>298.9</ele>
        <time>2021-09-24T09:39:34Z</time>
      </trkpt>
      <trkpt lat="48.35685" lon="-3.96096">
        <ele>298.5</ele>
        <time>2021-09-24T09:39:44Z</time>
      </trkpt>
      <trkpt lat="48.3568" lon="-3.96095">
        <ele>299.2</ele>
        <time>2021-09-24T09:39:48Z</time>
      </trkpt>
      <trkpt lat="48.35675" lon="-3.96095">
        <ele>300.3</ele>
        <time>2021-09-24T09:39:52Z</time>
      </trkpt>
      <trkpt lat="48.35671" lon="-3.96099">
        <ele>301.3</ele>
        <time>2021-09-24T09:39:57Z</time>
      </trkpt>
      <trkpt lat="48.35668" lon="-3.96106">
        <ele>301.1</ele>
        <time>2021-09-24T09:40:04Z</time>
      </trkpt>
      <trkpt lat="48.35665" lon="-3.96111">
        <ele>300.8</ele>
        <time>2021-09-24T09:40:28Z</time>
      </trkpt>
      <trkpt lat="48.35663" lon="-3.96119">
        <ele>300.1</ele>
        <time>2021-09-24T09:40:33Z</time>
      </trkpt>
      <trkpt lat="48.3566" lon="-3.96125">
        <ele>299.4</ele>
        <time>2021-09-24T09:40:39Z</time>
      </trkpt>
      <trkpt lat="48.35658" lon="-3.96131">
        <ele>299.3</ele>
        <time>2021-09-24T09:40:45Z</time>
      </trkpt>
      <trkpt lat="48.35653" lon="-3.96132">
        <ele>298.3</ele>
        <time>2021-09-24T09:40:52Z</time>
      </trkpt>
      <trkpt lat="48.35649" lon="-3.96129">
        <ele>297.7</ele>
        <time>2021-09-24T09:40:57Z</time>
      </trkpt>
      <trkpt lat="48.35644" lon="-3.96125">
        <ele>297.7</ele>
        <time>2021-09-24T09:41:03Z</time>
      </trkpt>
      <trkpt lat="48.3564" lon="-3.96119">
        <ele>297.7</ele>
        <time>2021-09-24T09:41:08Z</time>
      </trkpt>
      <trkpt lat="48.35636" lon="-3.96114">
        <ele>297.9</ele>
        <time>2021-09-24T09:41:13Z</time>
      </trkpt>
      <trkpt lat="48.35633" lon="-3.9611">
        <ele>298.9</ele>
        <time>2021-09-24T09:41:18Z</time>
      </trkpt>
      <trkpt lat="48.3563" lon="-3.96103">
        <ele>299.7</ele>
        <time>2021-09-24T09:41:22Z</time>
      </trkpt>
      <trkpt lat="48.35626" lon="-3.96097">
        <ele>300.3</ele>
        <time>2021-09-24T09:41:26Z</time>
      </trkpt>
      <trkpt lat="48.35623" lon="-3.9609">
        <ele>300.6</ele>
        <time>2021-09-24T09:41:30Z</time>
      </trkpt>
      <trkpt lat="48.3562" lon="-3.96083">
        <ele>301.2</ele>
        <time>2021-09-24T09:41:35Z</time>
      </trkpt>
      <trkpt lat="48.35617" lon="-3.96078">
        <ele>301.2</ele>
        <time>2021-09-24T09:41:41Z</time>
      </trkpt>
      <trkpt lat="48.35613" lon="-3.96072">
        <ele>301.2</ele>
        <time>2021-09-24T09:41:49Z</time>
      </trkpt>
      <trkpt lat="48.3561" lon="-3.96068">
        <ele>301.6</ele>
        <time>2021-09-24T09:41:55Z</time>
      </trkpt>
      <trkpt lat="48.35607" lon="-3.96062">
        <ele>301.3</ele>
        <time>2021-09-24T09:42:00Z</time>
      </trkpt>
      <trkpt lat="48.35602" lon="-3.96058">
        <ele>300.6</ele>
        <time>2021-09-24T09:42:04Z</time>
      </trkpt>
      <trkpt lat="48.35598" lon="-3.96055">
        <ele>300.2</ele>
        <time>2021-09-24T09:42:09Z</time>
      </trkpt>
      <trkpt lat="48.35594" lon="-3.96051">
        <ele>300.5</ele>
        <time>2021-09-24T09:42:14Z</time>
      </trkpt>
      <trkpt lat="48.3559" lon="-3.96047">
        <ele>300.6</ele>
        <time>2021-09-24T09:42:19Z</time>
      </trkpt>
      <trkpt lat="48.35586" lon="-3.96042">
        <ele>300.6</ele>
        <time>2021-09-24T09:43:21Z</time>
      </trkpt>
      <trkpt lat="48.35582" lon="-3.96037">
        <ele>300.8</ele>
        <time>2021-09-24T09:43:27Z</time>
      </trkpt>
      <trkpt lat="48.35578" lon="-3.96032">
        <ele>300.8</ele>
        <time>2021-09-24T09:43:32Z</time>
      </trkpt>
      <trkpt lat="48.35574" lon="-3.96027">
        <ele>300.9</ele>
        <time>2021-09-24T09:43:37Z</time>
      </trkpt>
      <trkpt lat="48.3557" lon="-3.96022">
        <ele>301.2</ele>
        <time>2021-09-24T09:43:42Z</time>
      </trkpt>
      <trkpt lat="48.35567" lon="-3.96016">
        <ele>301.7</ele>
        <time>2021-09-24T09:43:47Z</time>
      </trkpt>
      <trkpt lat="48.35562" lon="-3.96012">
        <ele>301.9</ele>
        <time>2021-09-24T09:43:53Z</time>
      </trkpt>
      <trkpt lat="48.35558" lon="-3.96006">
        <ele>302</ele>
        <time>2021-09-24T09:43:58Z</time>
      </trkpt>
      <trkpt lat="48.35555" lon="-3.96002">
        <ele>301.8</ele>
        <time>2021-09-24T09:44:02Z</time>
      </trkpt>
      <trkpt lat="48.35551" lon="-3.95997">
        <ele>301.8</ele>
        <time>2021-09-24T09:44:07Z</time>
      </trkpt>
      <trkpt lat="48.35547" lon="-3.95993">
        <ele>302.1</ele>
        <time>2021-09-24T09:44:12Z</time>
      </trkpt>
      <trkpt lat="48.35544" lon="-3.95988">
        <ele>302.4</ele>
        <time>2021-09-24T09:44:16Z</time>
      </trkpt>
      <trkpt lat="48.35539" lon="-3.95983">
        <ele>303.1</ele>
        <time>2021-09-24T09:44:21Z</time>
      </trkpt>
      <trkpt lat="48.35535" lon="-3.95979">
        <ele>303.5</ele>
        <time>2021-09-24T09:44:26Z</time>
      </trkpt>
      <trkpt lat="48.35531" lon="-3.95974">
        <ele>303.8</ele>
        <time>2021-09-24T09:44:31Z</time>
      </trkpt>
      <trkpt lat="48.35527" lon="-3.9597">
        <ele>304.4</ele>
        <time>2021-09-24T09:44:35Z</time>
      </trkpt>
      <trkpt lat="48.35523" lon="-3.95964">
        <ele>305</ele>
        <time>2021-09-24T09:44:40Z</time>
      </trkpt>
      <trkpt lat="48.3552" lon="-3.95959">
        <ele>305.3</ele>
        <time>2021-09-24T09:44:45Z</time>
      </trkpt>
      <trkpt lat="48.35516" lon="-3.95954">
        <ele>305.4</ele>
        <time>2021-09-24T09:44:49Z</time>
      </trkpt>
      <trkpt lat="48.35513" lon="-3.95948">
        <ele>305.1</ele>
        <time>2021-09-24T09:44:54Z</time>
      </trkpt>
      <trkpt lat="48.3551" lon="-3.95943">
        <ele>305.2</ele>
        <time>2021-09-24T09:44:59Z</time>
      </trkpt>
      <trkpt lat="48.35507" lon="-3.95937">
        <ele>305.5</ele>
        <time>2021-09-24T09:45:04Z</time>
      </trkpt>
      <trkpt lat="48.35504" lon="-3.95931">
        <ele>305.9</ele>
        <time>2021-09-24T09:45:09Z</time>
      </trkpt>
      <trkpt lat="48.35501" lon="-3.95926">
        <ele>306.6</ele>
        <time>2021-09-24T09:45:15Z</time>
      </trkpt>
      <trkpt lat="48.35497" lon="-3.95921">
        <ele>306.9</ele>
        <time>2021-09-24T09:45:20Z</time>
      </trkpt>
      <trkpt lat="48.35494" lon="-3.95915">
        <ele>307.3</ele>
        <time>2021-09-24T09:45:25Z</time>
      </trkpt>
      <trkpt lat="48.35491" lon="-3.95909">
        <ele>307.1</ele>
        <time>2021-09-24T09:45:30Z</time>
      </trkpt>
      <trkpt lat="48.35488" lon="-3.95903">
        <ele>307.2</ele>
        <time>2021-09-24T09:45:37Z</time>
      </trkpt>
      <trkpt lat="48.35486" lon="-3.95897">
        <ele>307.4</ele>
        <time>2021-09-24T09:45:42Z</time>
      </trkpt>
      <trkpt lat="48.35483" lon="-3.95891">
        <ele>307.8</ele>
        <time>2021-09-24T09:45:47Z</time>
      </trkpt>
      <trkpt lat="48.3548" lon="-3.95885">
        <ele>308.8</ele>
        <time>2021-09-24T09:45:52Z</time>
      </trkpt>
      <trkpt lat="48.35477" lon="-3.95879">
        <ele>309.5</ele>
        <time>2021-09-24T09:45:57Z</time>
      </trkpt>
      <trkpt lat="48.35474" lon="-3.95872">
        <ele>310.2</ele>
        <time>2021-09-24T09:46:01Z</time>
      </trkpt>
      <trkpt lat="48.35472" lon="-3.95866">
        <ele>311</ele>
        <time>2021-09-24T09:46:06Z</time>
      </trkpt>
      <trkpt lat="48.35469" lon="-3.9586">
        <ele>311.5</ele>
        <time>2021-09-24T09:46:11Z</time>
      </trkpt>
      <trkpt lat="48.35465" lon="-3.95854">
        <ele>311.4</ele>
        <time>2021-09-24T09:46:16Z</time>
      </trkpt>
      <trkpt lat="48.35462" lon="-3.95848">
        <ele>311.3</ele>
        <time>2021-09-24T09:46:21Z</time>
      </trkpt>
      <trkpt lat="48.35461" lon="-3.95841">
        <ele>311.4</ele>
        <time>2021-09-24T09:46:26Z</time>
      </trkpt>
      <trkpt lat="48.35459" lon="-3.95834">
        <ele>311.4</ele>
        <time>2021-09-24T09:46:31Z</time>
      </trkpt>
      <trkpt lat="48.35458" lon="-3.95826">
        <ele>311.9</ele>
        <time>2021-09-24T09:46:36Z</time>
      </trkpt>
      <trkpt lat="48.35456" lon="-3.95819">
        <ele>312.9</ele>
        <time>2021-09-24T09:46:41Z</time>
      </trkpt>
      <trkpt lat="48.35453" lon="-3.95812">
        <ele>313.7</ele>
        <time>2021-09-24T09:46:46Z</time>
      </trkpt>
      <trkpt lat="48.35452" lon="-3.95805">
        <ele>314</ele>
        <time>2021-09-24T09:46:50Z</time>
      </trkpt>
      <trkpt lat="48.3545" lon="-3.95797">
        <ele>314.5</ele>
        <time>2021-09-24T09:46:56Z</time>
      </trkpt>
      <trkpt lat="48.35449" lon="-3.95789">
        <ele>314.7</ele>
        <time>2021-09-24T09:47:01Z</time>
      </trkpt>
      <trkpt lat="48.35448" lon="-3.95781">
        <ele>315.1</ele>
        <time>2021-09-24T09:47:06Z</time>
      </trkpt>
      <trkpt lat="48.35446" lon="-3.95775">
        <ele>315.5</ele>
        <time>2021-09-24T09:47:11Z</time>
      </trkpt>
      <trkpt lat="48.35445" lon="-3.95767">
        <ele>315.9</ele>
        <time>2021-09-24T09:47:17Z</time>
      </trkpt>
      <trkpt lat="48.35444" lon="-3.9576">
        <ele>315.8</ele>
        <time>2021-09-24T09:47:22Z</time>
      </trkpt>
      <trkpt lat="48.35441" lon="-3.95753">
        <ele>316.2</ele>
        <time>2021-09-24T09:47:27Z</time>
      </trkpt>
      <trkpt lat="48.35439" lon="-3.95746">
        <ele>316.7</ele>
        <time>2021-09-24T09:47:32Z</time>
      </trkpt>
      <trkpt lat="48.35437" lon="-3.95738">
        <ele>317.6</ele>
        <time>2021-09-24T09:47:37Z</time>
      </trkpt>
      <trkpt lat="48.35434" lon="-3.95732">
        <ele>318.3</ele>
        <time>2021-09-24T09:47:41Z</time>
      </trkpt>
      <trkpt lat="48.35433" lon="-3.95725">
        <ele>319.2</ele>
        <time>2021-09-24T09:47:45Z</time>
      </trkpt>
      <trkpt lat="48.3543" lon="-3.95718">
        <ele>319.9</ele>
        <time>2021-09-24T09:47:50Z</time>
      </trkpt>
      <trkpt lat="48.35429" lon="-3.95711">
        <ele>320.4</ele>
        <time>2021-09-24T09:47:55Z</time>
      </trkpt>
      <trkpt lat="48.35427" lon="-3.95704">
        <ele>320.4</ele>
        <time>2021-09-24T09:48:00Z</time>
      </trkpt>
      <trkpt lat="48.35426" lon="-3.95696">
        <ele>319.7</ele>
        <time>2021-09-24T09:48:05Z</time>
      </trkpt>
      <trkpt lat="48.35425" lon="-3.95689">
        <ele>319.3</ele>
        <time>2021-09-24T09:48:09Z</time>
      </trkpt>
      <trkpt lat="48.35423" lon="-3.95682">
        <ele>319.3</ele>
        <time>2021-09-24T09:48:13Z</time>
      </trkpt>
      <trkpt lat="48.35421" lon="-3.95675">
        <ele>319.4</ele>
        <time>2021-09-24T09:48:18Z</time>
      </trkpt>
      <trkpt lat="48.35419" lon="-3.95668">
        <ele>319.8</ele>
        <time>2021-09-24T09:48:23Z</time>
      </trkpt>
      <trkpt lat="48.35417" lon="-3.95661">
        <ele>320.1</ele>
        <time>2021-09-24T09:48:28Z</time>
      </trkpt>
      <trkpt lat="48.35415" lon="-3.95654">
        <ele>320.6</ele>
        <time>2021-09-24T09:48:33Z</time>
      </trkpt>
      <trkpt lat="48.35412" lon="-3.95648">
        <ele>321.4</ele>
        <time>2021-09-24T09:48:38Z</time>
      </trkpt>
      <trkpt lat="48.3541" lon="-3.95642">
        <ele>321.9</ele>
        <time>2021-09-24T09:48:42Z</time>
      </trkpt>
      <trkpt lat="48.35407" lon="-3.95635">
        <ele>322.8</ele>
        <time>2021-09-24T09:48:47Z</time>
      </trkpt>
      <trkpt lat="48.35404" lon="-3.95628">
        <ele>323.6</ele>
        <time>2021-09-24T09:48:52Z</time>
      </trkpt>
      <trkpt lat="48.35402" lon="-3.95622">
        <ele>324</ele>
        <time>2021-09-24T09:48:57Z</time>
      </trkpt>
      <trkpt lat="48.35399" lon="-3.95616">
        <ele>324.5</ele>
        <time>2021-09-24T09:49:02Z</time>
      </trkpt>
      <trkpt lat="48.35396" lon="-3.9561">
        <ele>324.7</ele>
        <time>2021-09-24T09:49:07Z</time>
      </trkpt>
      <trkpt lat="48.35393" lon="-3.95604">
        <ele>324.8</ele>
        <time>2021-09-24T09:49:11Z</time>
      </trkpt>
      <trkpt lat="48.3539" lon="-3.95598">
        <ele>325</ele>
        <time>2021-09-24T09:49:15Z</time>
      </trkpt>
      <trkpt lat="48.35388" lon="-3.95591">
        <ele>325</ele>
        <time>2021-09-24T09:49:20Z</time>
      </trkpt>
      <trkpt lat="48.35386" lon="-3.95584">
        <ele>325.1</ele>
        <time>2021-09-24T09:49:25Z</time>
      </trkpt>
      <trkpt lat="48.35384" lon="-3.95577">
        <ele>324.8</ele>
        <time>2021-09-24T09:49:30Z</time>
      </trkpt>
      <trkpt lat="48.35382" lon="-3.9557">
        <ele>324.9</ele>
        <time>2021-09-24T09:49:35Z</time>
      </trkpt>
      <trkpt lat="48.3538" lon="-3.95562">
        <ele>325.3</ele>
        <time>2021-09-24T09:49:41Z</time>
      </trkpt>
      <trkpt lat="48.3538" lon="-3.95556">
        <ele>326.2</ele>
        <time>2021-09-24T09:49:47Z</time>
      </trkpt>
      <trkpt lat="48.35378" lon="-3.95548">
        <ele>326.9</ele>
        <time>2021-09-24T09:49:52Z</time>
      </trkpt>
      <trkpt lat="48.35375" lon="-3.95541">
        <ele>327.8</ele>
        <time>2021-09-24T09:49:57Z</time>
      </trkpt>
      <trkpt lat="48.35374" lon="-3.95534">
        <ele>329.2</ele>
        <time>2021-09-24T09:50:03Z</time>
      </trkpt>
      <trkpt lat="48.35373" lon="-3.95527">
        <ele>329.9</ele>
        <time>2021-09-24T09:52:16Z</time>
      </trkpt>
      <trkpt lat="48.35372" lon="-3.9552">
        <ele>329.6</ele>
        <time>2021-09-24T09:52:21Z</time>
      </trkpt>
      <trkpt lat="48.3537" lon="-3.95514">
        <ele>329.7</ele>
        <time>2021-09-24T09:52:26Z</time>
      </trkpt>
      <trkpt lat="48.35367" lon="-3.95507">
        <ele>330.1</ele>
        <time>2021-09-24T09:52:32Z</time>
      </trkpt>
      <trkpt lat="48.35364" lon="-3.95501">
        <ele>330.8</ele>
        <time>2021-09-24T09:52:38Z</time>
      </trkpt>
      <trkpt lat="48.3536" lon="-3.95496">
        <ele>331.3</ele>
        <time>2021-09-24T09:52:43Z</time>
      </trkpt>
      <trkpt lat="48.35357" lon="-3.9549">
        <ele>331.5</ele>
        <time>2021-09-24T09:52:47Z</time>
      </trkpt>
      <trkpt lat="48.35354" lon="-3.95485">
        <ele>331.3</ele>
        <time>2021-09-24T09:52:51Z</time>
      </trkpt>
      <trkpt lat="48.35352" lon="-3.95477">
        <ele>331</ele>
        <time>2021-09-24T09:52:56Z</time>
      </trkpt>
      <trkpt lat="48.3535" lon="-3.95471">
        <ele>331</ele>
        <time>2021-09-24T09:53:01Z</time>
      </trkpt>
      <trkpt lat="48.35348" lon="-3.95464">
        <ele>331</ele>
        <time>2021-09-24T09:53:08Z</time>
      </trkpt>
      <trkpt lat="48.35347" lon="-3.95457">
        <ele>331.1</ele>
        <time>2021-09-24T09:53:13Z</time>
      </trkpt>
      <trkpt lat="48.35346" lon="-3.9545">
        <ele>331.2</ele>
        <time>2021-09-24T09:53:19Z</time>
      </trkpt>
      <trkpt lat="48.35345" lon="-3.95443">
        <ele>331.4</ele>
        <time>2021-09-24T09:53:24Z</time>
      </trkpt>
      <trkpt lat="48.35344" lon="-3.95436">
        <ele>330.8</ele>
        <time>2021-09-24T09:53:29Z</time>
      </trkpt>
      <trkpt lat="48.35341" lon="-3.9543">
        <ele>330.4</ele>
        <time>2021-09-24T09:53:34Z</time>
      </trkpt>
      <trkpt lat="48.35337" lon="-3.95424">
        <ele>330.3</ele>
        <time>2021-09-24T09:53:39Z</time>
      </trkpt>
      <trkpt lat="48.35335" lon="-3.95418">
        <ele>331</ele>
        <time>2021-09-24T09:53:45Z</time>
      </trkpt>
      <trkpt lat="48.35333" lon="-3.9541">
        <ele>331.6</ele>
        <time>2021-09-24T09:53:50Z</time>
      </trkpt>
      <trkpt lat="48.35331" lon="-3.95403">
        <ele>332.6</ele>
        <time>2021-09-24T09:53:54Z</time>
      </trkpt>
      <trkpt lat="48.35329" lon="-3.95395">
        <ele>333.1</ele>
        <time>2021-09-24T09:53:59Z</time>
      </trkpt>
      <trkpt lat="48.35327" lon="-3.95388">
        <ele>333</ele>
        <time>2021-09-24T09:54:04Z</time>
      </trkpt>
      <trkpt lat="48.35324" lon="-3.95382">
        <ele>332.9</ele>
        <time>2021-09-24T09:54:08Z</time>
      </trkpt>
      <trkpt lat="48.35321" lon="-3.95377">
        <ele>332.9</ele>
        <time>2021-09-24T09:54:12Z</time>
      </trkpt>
      <trkpt lat="48.35318" lon="-3.95371">
        <ele>333</ele>
        <time>2021-09-24T09:54:17Z</time>
      </trkpt>
      <trkpt lat="48.35315" lon="-3.95364">
        <ele>333</ele>
        <time>2021-09-24T09:54:22Z</time>
      </trkpt>
      <trkpt lat="48.35312" lon="-3.95358">
        <ele>333.1</ele>
        <time>2021-09-24T09:54:27Z</time>
      </trkpt>
      <trkpt lat="48.35309" lon="-3.95351">
        <ele>333.2</ele>
        <time>2021-09-24T09:54:32Z</time>
      </trkpt>
      <trkpt lat="48.35307" lon="-3.95345">
        <ele>333.1</ele>
        <time>2021-09-24T09:54:37Z</time>
      </trkpt>
      <trkpt lat="48.35306" lon="-3.95338">
        <ele>333.1</ele>
        <time>2021-09-24T09:54:42Z</time>
      </trkpt>
      <trkpt lat="48.35304" lon="-3.95331">
        <ele>333.3</ele>
        <time>2021-09-24T09:54:47Z</time>
      </trkpt>
      <trkpt lat="48.35301" lon="-3.95325">
        <ele>332.9</ele>
        <time>2021-09-24T09:54:52Z</time>
      </trkpt>
      <trkpt lat="48.35298" lon="-3.95319">
        <ele>332.6</ele>
        <time>2021-09-24T09:54:57Z</time>
      </trkpt>
      <trkpt lat="48.35296" lon="-3.95312">
        <ele>332.3</ele>
        <time>2021-09-24T09:55:02Z</time>
      </trkpt>
      <trkpt lat="48.35293" lon="-3.95306">
        <ele>332</ele>
        <time>2021-09-24T09:55:06Z</time>
      </trkpt>
      <trkpt lat="48.35292" lon="-3.95298">
        <ele>332.1</ele>
        <time>2021-09-24T09:55:11Z</time>
      </trkpt>
      <trkpt lat="48.35289" lon="-3.95292">
        <ele>332.4</ele>
        <time>2021-09-24T09:55:16Z</time>
      </trkpt>
      <trkpt lat="48.35286" lon="-3.95286">
        <ele>332.3</ele>
        <time>2021-09-24T09:55:20Z</time>
      </trkpt>
      <trkpt lat="48.35283" lon="-3.95281">
        <ele>332</ele>
        <time>2021-09-24T09:55:24Z</time>
      </trkpt>
      <trkpt lat="48.3528" lon="-3.95274">
        <ele>331.6</ele>
        <time>2021-09-24T09:55:28Z</time>
      </trkpt>
      <trkpt lat="48.35278" lon="-3.95268">
        <ele>331.6</ele>
        <time>2021-09-24T09:55:33Z</time>
      </trkpt>
      <trkpt lat="48.35274" lon="-3.95262">
        <ele>332.1</ele>
        <time>2021-09-24T09:55:38Z</time>
      </trkpt>
      <trkpt lat="48.3527" lon="-3.95258">
        <ele>332.9</ele>
        <time>2021-09-24T09:55:44Z</time>
      </trkpt>
      <trkpt lat="48.35267" lon="-3.95251">
        <ele>333.3</ele>
        <time>2021-09-24T09:55:49Z</time>
      </trkpt>
      <trkpt lat="48.35265" lon="-3.95245">
        <ele>333.7</ele>
        <time>2021-09-24T09:55:53Z</time>
      </trkpt>
      <trkpt lat="48.35262" lon="-3.95238">
        <ele>333.8</ele>
        <time>2021-09-24T09:55:57Z</time>
      </trkpt>
      <trkpt lat="48.35259" lon="-3.95231">
        <ele>334.2</ele>
        <time>2021-09-24T09:56:01Z</time>
      </trkpt>
      <trkpt lat="48.35256" lon="-3.95225">
        <ele>334.8</ele>
        <time>2021-09-24T09:56:05Z</time>
      </trkpt>
      <trkpt lat="48.35254" lon="-3.95219">
        <ele>335.3</ele>
        <time>2021-09-24T09:56:09Z</time>
      </trkpt>
      <trkpt lat="48.35252" lon="-3.95213">
        <ele>335.8</ele>
        <time>2021-09-24T09:56:14Z</time>
      </trkpt>
      <trkpt lat="48.35249" lon="-3.95207">
        <ele>336.3</ele>
        <time>2021-09-24T09:56:19Z</time>
      </trkpt>
      <trkpt lat="48.35246" lon="-3.95201">
        <ele>336.4</ele>
        <time>2021-09-24T09:56:23Z</time>
      </trkpt>
      <trkpt lat="48.35242" lon="-3.95196">
        <ele>336.4</ele>
        <time>2021-09-24T09:56:27Z</time>
      </trkpt>
      <trkpt lat="48.35239" lon="-3.9519">
        <ele>336.2</ele>
        <time>2021-09-24T09:56:31Z</time>
      </trkpt>
      <trkpt lat="48.35235" lon="-3.95185">
        <ele>335.8</ele>
        <time>2021-09-24T09:56:36Z</time>
      </trkpt>
      <trkpt lat="48.35231" lon="-3.9518">
        <ele>335.8</ele>
        <time>2021-09-24T09:56:41Z</time>
      </trkpt>
      <trkpt lat="48.35228" lon="-3.95174">
        <ele>336</ele>
        <time>2021-09-24T09:56:45Z</time>
      </trkpt>
      <trkpt lat="48.35226" lon="-3.95167">
        <ele>336.5</ele>
        <time>2021-09-24T09:56:49Z</time>
      </trkpt>
      <trkpt lat="48.35224" lon="-3.95161">
        <ele>336.8</ele>
        <time>2021-09-24T09:56:53Z</time>
      </trkpt>
      <trkpt lat="48.35222" lon="-3.95155">
        <ele>337.1</ele>
        <time>2021-09-24T09:56:57Z</time>
      </trkpt>
      <trkpt lat="48.35219" lon="-3.95148">
        <ele>337.3</ele>
        <time>2021-09-24T09:57:02Z</time>
      </trkpt>
      <trkpt lat="48.35217" lon="-3.95142">
        <ele>337.1</ele>
        <time>2021-09-24T09:57:06Z</time>
      </trkpt>
      <trkpt lat="48.35214" lon="-3.95135">
        <ele>337.1</ele>
        <time>2021-09-24T09:57:11Z</time>
      </trkpt>
      <trkpt lat="48.35211" lon="-3.95129">
        <ele>336.9</ele>
        <time>2021-09-24T09:57:15Z</time>
      </trkpt>
      <trkpt lat="48.35209" lon="-3.95123">
        <ele>336.7</ele>
        <time>2021-09-24T09:57:19Z</time>
      </trkpt>
      <trkpt lat="48.35207" lon="-3.95116">
        <ele>337.2</ele>
        <time>2021-09-24T09:57:24Z</time>
      </trkpt>
      <trkpt lat="48.35204" lon="-3.9511">
        <ele>337.6</ele>
        <time>2021-09-24T09:57:29Z</time>
      </trkpt>
      <trkpt lat="48.35201" lon="-3.95104">
        <ele>337.7</ele>
        <time>2021-09-24T09:57:34Z</time>
      </trkpt>
      <trkpt lat="48.35199" lon="-3.95097">
        <ele>337.7</ele>
        <time>2021-09-24T09:57:38Z</time>
      </trkpt>
      <trkpt lat="48.35197" lon="-3.95091">
        <ele>337.8</ele>
        <time>2021-09-24T09:57:42Z</time>
      </trkpt>
      <trkpt lat="48.35194" lon="-3.95086">
        <ele>338.6</ele>
        <time>2021-09-24T09:57:47Z</time>
      </trkpt>
      <trkpt lat="48.35192" lon="-3.95079">
        <ele>338.9</ele>
        <time>2021-09-24T09:57:53Z</time>
      </trkpt>
      <trkpt lat="48.35189" lon="-3.95073">
        <ele>338.9</ele>
        <time>2021-09-24T09:57:58Z</time>
      </trkpt>
      <trkpt lat="48.35186" lon="-3.95068">
        <ele>338.5</ele>
        <time>2021-09-24T09:58:02Z</time>
      </trkpt>
      <trkpt lat="48.35182" lon="-3.95062">
        <ele>337.8</ele>
        <time>2021-09-24T09:58:07Z</time>
      </trkpt>
      <trkpt lat="48.35181" lon="-3.95056">
        <ele>337.8</ele>
        <time>2021-09-24T09:58:11Z</time>
      </trkpt>
      <trkpt lat="48.35179" lon="-3.95049">
        <ele>338</ele>
        <time>2021-09-24T09:58:15Z</time>
      </trkpt>
      <trkpt lat="48.35176" lon="-3.95042">
        <ele>337.7</ele>
        <time>2021-09-24T09:58:20Z</time>
      </trkpt>
      <trkpt lat="48.35173" lon="-3.95036">
        <ele>337.6</ele>
        <time>2021-09-24T09:58:24Z</time>
      </trkpt>
      <trkpt lat="48.35171" lon="-3.9503">
        <ele>337.9</ele>
        <time>2021-09-24T09:58:28Z</time>
      </trkpt>
      <trkpt lat="48.35168" lon="-3.95023">
        <ele>338</ele>
        <time>2021-09-24T09:58:33Z</time>
      </trkpt>
      <trkpt lat="48.35166" lon="-3.95016">
        <ele>337.8</ele>
        <time>2021-09-24T09:58:37Z</time>
      </trkpt>
      <trkpt lat="48.35164" lon="-3.9501">
        <ele>338.1</ele>
        <time>2021-09-24T09:58:42Z</time>
      </trkpt>
      <trkpt lat="48.35162" lon="-3.95003">
        <ele>338.1</ele>
        <time>2021-09-24T09:58:47Z</time>
      </trkpt>
      <trkpt lat="48.35161" lon="-3.94996">
        <ele>338.3</ele>
        <time>2021-09-24T09:58:51Z</time>
      </trkpt>
      <trkpt lat="48.35159" lon="-3.94989">
        <ele>338.6</ele>
        <time>2021-09-24T09:58:55Z</time>
      </trkpt>
      <trkpt lat="48.35157" lon="-3.94981">
        <ele>339.1</ele>
        <time>2021-09-24T09:59:00Z</time>
      </trkpt>
      <trkpt lat="48.35156" lon="-3.94974">
        <ele>339.3</ele>
        <time>2021-09-24T09:59:05Z</time>
      </trkpt>
      <trkpt lat="48.35153" lon="-3.94967">
        <ele>339.2</ele>
        <time>2021-09-24T09:59:10Z</time>
      </trkpt>
      <trkpt lat="48.35151" lon="-3.94961">
        <ele>339.5</ele>
        <time>2021-09-24T09:59:14Z</time>
      </trkpt>
      <trkpt lat="48.35149" lon="-3.94954">
        <ele>339.7</ele>
        <time>2021-09-24T09:59:19Z</time>
      </trkpt>
      <trkpt lat="48.35146" lon="-3.94947">
        <ele>339.8</ele>
        <time>2021-09-24T09:59:24Z</time>
      </trkpt>
      <trkpt lat="48.35145" lon="-3.9494">
        <ele>339.8</ele>
        <time>2021-09-24T09:59:29Z</time>
      </trkpt>
      <trkpt lat="48.35143" lon="-3.94933">
        <ele>339.7</ele>
        <time>2021-09-24T09:59:34Z</time>
      </trkpt>
      <trkpt lat="48.3514" lon="-3.94926">
        <ele>339.7</ele>
        <time>2021-09-24T09:59:39Z</time>
      </trkpt>
      <trkpt lat="48.35138" lon="-3.94919">
        <ele>340.1</ele>
        <time>2021-09-24T09:59:44Z</time>
      </trkpt>
      <trkpt lat="48.35136" lon="-3.94911">
        <ele>340.4</ele>
        <time>2021-09-24T09:59:49Z</time>
      </trkpt>
      <trkpt lat="48.35134" lon="-3.94905">
        <ele>340.9</ele>
        <time>2021-09-24T09:59:54Z</time>
      </trkpt>
      <trkpt lat="48.35132" lon="-3.94898">
        <ele>341.1</ele>
        <time>2021-09-24T10:00:00Z</time>
      </trkpt>
      <trkpt lat="48.3513" lon="-3.94891">
        <ele>341.1</ele>
        <time>2021-09-24T10:00:06Z</time>
      </trkpt>
      <trkpt lat="48.35127" lon="-3.94885">
        <ele>340.8</ele>
        <time>2021-09-24T10:00:11Z</time>
      </trkpt>
      <trkpt lat="48.35124" lon="-3.94878">
        <ele>340.8</ele>
        <time>2021-09-24T10:00:17Z</time>
      </trkpt>
      <trkpt lat="48.35122" lon="-3.94872">
        <ele>341.2</ele>
        <time>2021-09-24T10:00:22Z</time>
      </trkpt>
      <trkpt lat="48.35118" lon="-3.94867">
        <ele>341.4</ele>
        <time>2021-09-24T10:00:27Z</time>
      </trkpt>
      <trkpt lat="48.35114" lon="-3.94862">
        <ele>341.3</ele>
        <time>2021-09-24T10:00:32Z</time>
      </trkpt>
      <trkpt lat="48.35111" lon="-3.94856">
        <ele>341.3</ele>
        <time>2021-09-24T10:00:38Z</time>
      </trkpt>
      <trkpt lat="48.35107" lon="-3.94851">
        <ele>341.3</ele>
        <time>2021-09-24T10:00:44Z</time>
      </trkpt>
      <trkpt lat="48.35104" lon="-3.94845">
        <ele>341.8</ele>
        <time>2021-09-24T10:00:49Z</time>
      </trkpt>
      <trkpt lat="48.35101" lon="-3.94839">
        <ele>342.8</ele>
        <time>2021-09-24T10:00:55Z</time>
      </trkpt>
      <trkpt lat="48.35098" lon="-3.94833">
        <ele>343.2</ele>
        <time>2021-09-24T10:01:01Z</time>
      </trkpt>
      <trkpt lat="48.35094" lon="-3.94828">
        <ele>343.5</ele>
        <time>2021-09-24T10:01:07Z</time>
      </trkpt>
      <trkpt lat="48.3509" lon="-3.94822">
        <ele>344</ele>
        <time>2021-09-24T10:01:12Z</time>
      </trkpt>
      <trkpt lat="48.35089" lon="-3.94814">
        <ele>344.1</ele>
        <time>2021-09-24T10:01:18Z</time>
      </trkpt>
      <trkpt lat="48.35089" lon="-3.94807">
        <ele>343.8</ele>
        <time>2021-09-24T10:01:25Z</time>
      </trkpt>
      <trkpt lat="48.3509" lon="-3.948">
        <ele>344.6</ele>
        <time>2021-09-24T10:03:52Z</time>
      </trkpt>
      <trkpt lat="48.3509" lon="-3.94792">
        <ele>344.6</ele>
        <time>2021-09-24T10:03:59Z</time>
      </trkpt>
      <trkpt lat="48.35088" lon="-3.94786">
        <ele>344.8</ele>
        <time>2021-09-24T10:04:05Z</time>
      </trkpt>
      <trkpt lat="48.35087" lon="-3.94779">
        <ele>344.8</ele>
        <time>2021-09-24T10:04:11Z</time>
      </trkpt>
      <trkpt lat="48.35086" lon="-3.94772">
        <ele>344.8</ele>
        <time>2021-09-24T10:04:18Z</time>
      </trkpt>
      <trkpt lat="48.35086" lon="-3.94764">
        <ele>344.9</ele>
        <time>2021-09-24T10:04:24Z</time>
      </trkpt>
      <trkpt lat="48.35085" lon="-3.94757">
        <ele>345.2</ele>
        <time>2021-09-24T10:04:32Z</time>
      </trkpt>
      <trkpt lat="48.35083" lon="-3.9475">
        <ele>345.5</ele>
        <time>2021-09-24T10:04:41Z</time>
      </trkpt>
      <trkpt lat="48.35081" lon="-3.94744">
        <ele>346.3</ele>
        <time>2021-09-24T10:04:51Z</time>
      </trkpt>
      <trkpt lat="48.35078" lon="-3.94738">
        <ele>347.1</ele>
        <time>2021-09-24T10:05:00Z</time>
      </trkpt>
      <trkpt lat="48.35074" lon="-3.94734">
        <ele>347.1</ele>
        <time>2021-09-24T10:05:06Z</time>
      </trkpt>
      <trkpt lat="48.3507" lon="-3.94729">
        <ele>347.2</ele>
        <time>2021-09-24T10:05:15Z</time>
      </trkpt>
      <trkpt lat="48.35068" lon="-3.94723">
        <ele>348.1</ele>
        <time>2021-09-24T10:05:20Z</time>
      </trkpt>
      <trkpt lat="48.35067" lon="-3.94716">
        <ele>349.4</ele>
        <time>2021-09-24T10:05:27Z</time>
      </trkpt>
      <trkpt lat="48.35065" lon="-3.94709">
        <ele>349.9</ele>
        <time>2021-09-24T10:05:33Z</time>
      </trkpt>
      <trkpt lat="48.35062" lon="-3.94703">
        <ele>350.5</ele>
        <time>2021-09-24T10:05:41Z</time>
      </trkpt>
      <trkpt lat="48.35059" lon="-3.94698">
        <ele>351.8</ele>
        <time>2021-09-24T10:05:50Z</time>
      </trkpt>
      <trkpt lat="48.35053" lon="-3.94699">
        <ele>353.3</ele>
        <time>2021-09-24T10:05:58Z</time>
      </trkpt>
      <trkpt lat="48.35049" lon="-3.94699">
        <ele>354.3</ele>
        <time>2021-09-24T10:06:04Z</time>
      </trkpt>
      <trkpt lat="48.35044" lon="-3.947">
        <ele>354.7</ele>
        <time>2021-09-24T10:06:09Z</time>
      </trkpt>
      <trkpt lat="48.35039" lon="-3.94699">
        <ele>355.3</ele>
        <time>2021-09-24T10:06:16Z</time>
      </trkpt>
      <trkpt lat="48.35035" lon="-3.94699">
        <ele>356.7</ele>
        <time>2021-09-24T10:06:23Z</time>
      </trkpt>
      <trkpt lat="48.35029" lon="-3.94699">
        <ele>357.8</ele>
        <time>2021-09-24T10:06:29Z</time>
      </trkpt>
      <trkpt lat="48.35024" lon="-3.94698">
        <ele>358.7</ele>
        <time>2021-09-24T10:06:34Z</time>
      </trkpt>
      <trkpt lat="48.35019" lon="-3.94697">
        <ele>359.3</ele>
        <time>2021-09-24T10:06:40Z</time>
      </trkpt>
      <trkpt lat="48.35015" lon="-3.94696">
        <ele>359.6</ele>
        <time>2021-09-24T10:06:48Z</time>
      </trkpt>
      <trkpt lat="48.3501" lon="-3.94694">
        <ele>359.8</ele>
        <time>2021-09-24T10:06:54Z</time>
      </trkpt>
      <trkpt lat="48.35006" lon="-3.94692">
        <ele>358.9</ele>
        <time>2021-09-24T10:07:01Z</time>
      </trkpt>
      <trkpt lat="48.35002" lon="-3.94688">
        <ele>357.8</ele>
        <time>2021-09-24T10:07:14Z</time>
      </trkpt>
      <trkpt lat="48.34998" lon="-3.94684">
        <ele>359.7</ele>
        <time>2021-09-24T10:10:24Z</time>
      </trkpt>
      <trkpt lat="48.34996" lon="-3.94677">
        <ele>361.4</ele>
        <time>2021-09-24T10:10:30Z</time>
      </trkpt>
      <trkpt lat="48.34995" lon="-3.9467">
        <ele>362.3</ele>
        <time>2021-09-24T10:10:36Z</time>
      </trkpt>
      <trkpt lat="48.34993" lon="-3.94664">
        <ele>361.1</ele>
        <time>2021-09-24T10:10:52Z</time>
      </trkpt>
      <trkpt lat="48.34988" lon="-3.94662">
        <ele>360.4</ele>
        <time>2021-09-24T10:10:59Z</time>
      </trkpt>
      <trkpt lat="48.34984" lon="-3.94658">
        <ele>360</ele>
        <time>2021-09-24T10:11:05Z</time>
      </trkpt>
      <trkpt lat="48.34981" lon="-3.94652">
        <ele>360.1</ele>
        <time>2021-09-24T10:11:10Z</time>
      </trkpt>
      <trkpt lat="48.34978" lon="-3.94648">
        <ele>360.7</ele>
        <time>2021-09-24T10:11:15Z</time>
      </trkpt>
      <trkpt lat="48.34974" lon="-3.94642">
        <ele>361.5</ele>
        <time>2021-09-24T10:11:20Z</time>
      </trkpt>
      <trkpt lat="48.34971" lon="-3.94637">
        <ele>362</ele>
        <time>2021-09-24T10:11:25Z</time>
      </trkpt>
      <trkpt lat="48.34968" lon="-3.94631">
        <ele>361.7</ele>
        <time>2021-09-24T10:11:30Z</time>
      </trkpt>
      <trkpt lat="48.34965" lon="-3.94624">
        <ele>361.2</ele>
        <time>2021-09-24T10:11:35Z</time>
      </trkpt>
      <trkpt lat="48.34962" lon="-3.94617">
        <ele>360.6</ele>
        <time>2021-09-24T10:11:40Z</time>
      </trkpt>
      <trkpt lat="48.3496" lon="-3.94609">
        <ele>360.5</ele>
        <time>2021-09-24T10:11:45Z</time>
      </trkpt>
      <trkpt lat="48.34958" lon="-3.94602">
        <ele>360.9</ele>
        <time>2021-09-24T10:11:50Z</time>
      </trkpt>
      <trkpt lat="48.34956" lon="-3.94594">
        <ele>361.7</ele>
        <time>2021-09-24T10:11:55Z</time>
      </trkpt>
      <trkpt lat="48.34955" lon="-3.94587">
        <ele>362.4</ele>
        <time>2021-09-24T10:12:00Z</time>
      </trkpt>
      <trkpt lat="48.34954" lon="-3.9458">
        <ele>363.5</ele>
        <time>2021-09-24T10:12:06Z</time>
      </trkpt>
      <trkpt lat="48.34954" lon="-3.94573">
        <ele>363.6</ele>
        <time>2021-09-24T10:12:10Z</time>
      </trkpt>
      <trkpt lat="48.34953" lon="-3.94566">
        <ele>363.4</ele>
        <time>2021-09-24T10:12:14Z</time>
      </trkpt>
      <trkpt lat="48.34953" lon="-3.94559">
        <ele>363</ele>
        <time>2021-09-24T10:12:19Z</time>
      </trkpt>
      <trkpt lat="48.34953" lon="-3.94552">
        <ele>363.3</ele>
        <time>2021-09-24T10:12:24Z</time>
      </trkpt>
      <trkpt lat="48.34954" lon="-3.94544">
        <ele>364.4</ele>
        <time>2021-09-24T10:12:30Z</time>
      </trkpt>
      <trkpt lat="48.34955" lon="-3.94536">
        <ele>365.4</ele>
        <time>2021-09-24T10:12:35Z</time>
      </trkpt>
      <trkpt lat="48.34956" lon="-3.9453">
        <ele>366.5</ele>
        <time>2021-09-24T10:12:40Z</time>
      </trkpt>
      <trkpt lat="48.34958" lon="-3.94523">
        <ele>367.9</ele>
        <time>2021-09-24T10:12:46Z</time>
      </trkpt>
      <trkpt lat="48.34959" lon="-3.94516">
        <ele>368.6</ele>
        <time>2021-09-24T10:12:50Z</time>
      </trkpt>
      <trkpt lat="48.3496" lon="-3.94509">
        <ele>368.9</ele>
        <time>2021-09-24T10:12:54Z</time>
      </trkpt>
      <trkpt lat="48.34962" lon="-3.94502">
        <ele>369.1</ele>
        <time>2021-09-24T10:12:59Z</time>
      </trkpt>
      <trkpt lat="48.34964" lon="-3.94495">
        <ele>369.4</ele>
        <time>2021-09-24T10:13:05Z</time>
      </trkpt>
      <trkpt lat="48.34966" lon="-3.94488">
        <ele>369.4</ele>
        <time>2021-09-24T10:13:11Z</time>
      </trkpt>
      <trkpt lat="48.34969" lon="-3.94482">
        <ele>369.4</ele>
        <time>2021-09-24T10:13:16Z</time>
      </trkpt>
      <trkpt lat="48.34973" lon="-3.94475">
        <ele>369.6</ele>
        <time>2021-09-24T10:13:21Z</time>
      </trkpt>
      <trkpt lat="48.34976" lon="-3.94469">
        <ele>369.5</ele>
        <time>2021-09-24T10:13:26Z</time>
      </trkpt>
      <trkpt lat="48.3498" lon="-3.94464">
        <ele>369.6</ele>
        <time>2021-09-24T10:13:32Z</time>
      </trkpt>
      <trkpt lat="48.34983" lon="-3.94459">
        <ele>369.8</ele>
        <time>2021-09-24T10:13:37Z</time>
      </trkpt>
      <trkpt lat="48.34988" lon="-3.94455">
        <ele>370.4</ele>
        <time>2021-09-24T10:13:42Z</time>
      </trkpt>
      <trkpt lat="48.34993" lon="-3.94452">
        <ele>371.4</ele>
        <time>2021-09-24T10:13:47Z</time>
      </trkpt>
      <trkpt lat="48.34998" lon="-3.9445">
        <ele>372.5</ele>
        <time>2021-09-24T10:13:53Z</time>
      </trkpt>
      <trkpt lat="48.35003" lon="-3.94449">
        <ele>372.6</ele>
        <time>2021-09-24T10:13:58Z</time>
      </trkpt>
      <trkpt lat="48.35008" lon="-3.94449">
        <ele>371.7</ele>
        <time>2021-09-24T10:14:36Z</time>
      </trkpt>
      <trkpt lat="48.35009" lon="-3.94456">
        <ele>372.9</ele>
        <time>2021-09-24T10:14:46Z</time>
      </trkpt>
      <trkpt lat="48.35014" lon="-3.94459">
        <ele>373</ele>
        <time>2021-09-24T10:14:55Z</time>
      </trkpt>
      <trkpt lat="48.35013" lon="-3.94466">
        <ele>370.4</ele>
        <time>2021-09-24T10:16:30Z</time>
      </trkpt>
      <trkpt lat="48.35014" lon="-3.94473">
        <ele>370.6</ele>
        <time>2021-09-24T10:16:34Z</time>
      </trkpt>
      <trkpt lat="48.35015" lon="-3.9448">
        <ele>371.3</ele>
        <time>2021-09-24T10:16:38Z</time>
      </trkpt>
      <trkpt lat="48.35017" lon="-3.94487">
        <ele>372</ele>
        <time>2021-09-24T10:16:43Z</time>
      </trkpt>
      <trkpt lat="48.35018" lon="-3.94494">
        <ele>372.2</ele>
        <time>2021-09-24T10:16:48Z</time>
      </trkpt>
      <trkpt lat="48.35019" lon="-3.94501">
        <ele>372.3</ele>
        <time>2021-09-24T10:16:53Z</time>
      </trkpt>
      <trkpt lat="48.35021" lon="-3.94509">
        <ele>372.8</ele>
        <time>2021-09-24T10:16:59Z</time>
      </trkpt>
      <trkpt lat="48.35023" lon="-3.94515">
        <ele>372.7</ele>
        <time>2021-09-24T10:17:05Z</time>
      </trkpt>
      <trkpt lat="48.35025" lon="-3.94522">
        <ele>372.9</ele>
        <time>2021-09-24T10:17:09Z</time>
      </trkpt>
      <trkpt lat="48.35026" lon="-3.94529">
        <ele>373.5</ele>
        <time>2021-09-24T10:17:13Z</time>
      </trkpt>
      <trkpt lat="48.35028" lon="-3.94537">
        <ele>374.6</ele>
        <time>2021-09-24T10:17:18Z</time>
      </trkpt>
      <trkpt lat="48.35029" lon="-3.94544">
        <ele>375.8</ele>
        <time>2021-09-24T10:17:22Z</time>
      </trkpt>
      <trkpt lat="48.35031" lon="-3.94551">
        <ele>376.7</ele>
        <time>2021-09-24T10:17:27Z</time>
      </trkpt>
      <trkpt lat="48.35032" lon="-3.94559">
        <ele>376.8</ele>
        <time>2021-09-24T10:17:34Z</time>
      </trkpt>
      <trkpt lat="48.35034" lon="-3.94566">
        <ele>376.7</ele>
        <time>2021-09-24T10:17:41Z</time>
      </trkpt>
      <trkpt lat="48.35035" lon="-3.94572">
        <ele>377.3</ele>
        <time>2021-09-24T10:17:50Z</time>
      </trkpt>
      <trkpt lat="48.35036" lon="-3.94579">
        <ele>377.5</ele>
        <time>2021-09-24T10:17:56Z</time>
      </trkpt>
      <trkpt lat="48.35031" lon="-3.9458">
        <ele>374.8</ele>
        <time>2021-09-24T10:18:16Z</time>
      </trkpt>
      <trkpt lat="48.3503" lon="-3.94574">
        <ele>371.7</ele>
        <time>2021-09-24T10:18:34Z</time>
      </trkpt>
      <trkpt lat="48.35032" lon="-3.94566">
        <ele>371.5</ele>
        <time>2021-09-24T10:18:41Z</time>
      </trkpt>
      <trkpt lat="48.35034" lon="-3.9456">
        <ele>371.3</ele>
        <time>2021-09-24T10:18:49Z</time>
      </trkpt>
      <trkpt lat="48.35038" lon="-3.94567">
        <ele>371.2</ele>
        <time>2021-09-24T10:18:57Z</time>
      </trkpt>
      <trkpt lat="48.3504" lon="-3.94574">
        <ele>371.2</ele>
        <time>2021-09-24T10:19:00Z</time>
      </trkpt>
      <trkpt lat="48.35027" lon="-3.94566">
        <ele>371.7</ele>
        <time>2021-09-24T10:21:05Z</time>
      </trkpt>
      <trkpt lat="48.35043" lon="-3.94556">
        <ele>364.4</ele>
        <time>2021-09-24T10:22:31Z</time>
      </trkpt>
      <trkpt lat="48.35038" lon="-3.94557">
        <ele>366.9</ele>
        <time>2021-09-24T10:22:35Z</time>
      </trkpt>
      <trkpt lat="48.35036" lon="-3.94563">
        <ele>368.5</ele>
        <time>2021-09-24T10:22:42Z</time>
      </trkpt>
      <trkpt lat="48.35033" lon="-3.94568">
        <ele>369.4</ele>
        <time>2021-09-24T10:22:49Z</time>
      </trkpt>
      <trkpt lat="48.35028" lon="-3.94568">
        <ele>370.1</ele>
        <time>2021-09-24T10:23:05Z</time>
      </trkpt>
      <trkpt lat="48.35024" lon="-3.94571">
        <ele>370</ele>
        <time>2021-09-24T10:23:14Z</time>
      </trkpt>
      <trkpt lat="48.3503" lon="-3.9457">
        <ele>367.3</ele>
        <time>2021-09-24T10:23:56Z</time>
      </trkpt>
      <trkpt lat="48.35034" lon="-3.94573">
        <ele>367.8</ele>
        <time>2021-09-24T10:24:00Z</time>
      </trkpt>
      <trkpt lat="48.35039" lon="-3.94575">
        <ele>369.5</ele>
        <time>2021-09-24T10:24:05Z</time>
      </trkpt>
      <trkpt lat="48.35043" lon="-3.94572">
        <ele>371.5</ele>
        <time>2021-09-24T10:24:11Z</time>
      </trkpt>
      <trkpt lat="48.35046" lon="-3.94566">
        <ele>372.3</ele>
        <time>2021-09-24T10:24:17Z</time>
      </trkpt>
      <trkpt lat="48.3505" lon="-3.94562">
        <ele>372.3</ele>
        <time>2021-09-24T10:24:29Z</time>
      </trkpt>
      <trkpt lat="48.35046" lon="-3.94557">
        <ele>371.4</ele>
        <time>2021-09-24T10:24:35Z</time>
      </trkpt>
      <trkpt lat="48.35042" lon="-3.94551">
        <ele>370.2</ele>
        <time>2021-09-24T10:24:41Z</time>
      </trkpt>
      <trkpt lat="48.35038" lon="-3.9455">
        <ele>368.6</ele>
        <time>2021-09-24T10:24:53Z</time>
      </trkpt>
      <trkpt lat="48.35043" lon="-3.94546">
        <ele>371</ele>
        <time>2021-09-24T10:28:38Z</time>
      </trkpt>
      <trkpt lat="48.35038" lon="-3.9455">
        <ele>374.9</ele>
        <time>2021-09-24T11:07:09Z</time>
      </trkpt>
      <trkpt lat="48.35035" lon="-3.94545">
        <ele>371.2</ele>
        <time>2021-09-24T11:08:15Z</time>
      </trkpt>
      <trkpt lat="48.35032" lon="-3.94542">
        <ele>370.5</ele>
        <time>2021-09-24T11:08:21Z</time>
      </trkpt>
      <trkpt lat="48.35027" lon="-3.9454">
        <ele>370.5</ele>
        <time>2021-09-24T11:08:27Z</time>
      </trkpt>
      <trkpt lat="48.35023" lon="-3.94538">
        <ele>371.5</ele>
        <time>2021-09-24T11:08:34Z</time>
      </trkpt>
      <trkpt lat="48.35017" lon="-3.94537">
        <ele>372.7</ele>
        <time>2021-09-24T11:08:42Z</time>
      </trkpt>
      <trkpt lat="48.35013" lon="-3.94538">
        <ele>372.2</ele>
        <time>2021-09-24T11:08:47Z</time>
      </trkpt>
      <trkpt lat="48.35008" lon="-3.94537">
        <ele>371.2</ele>
        <time>2021-09-24T11:08:54Z</time>
      </trkpt>
      <trkpt lat="48.35008" lon="-3.9453">
        <ele>372.3</ele>
        <time>2021-09-24T11:09:37Z</time>
      </trkpt>
      <trkpt lat="48.3501" lon="-3.94524">
        <ele>372.3</ele>
        <time>2021-09-24T11:10:20Z</time>
      </trkpt>
      <trkpt lat="48.35012" lon="-3.94517">
        <ele>372.2</ele>
        <time>2021-09-24T11:10:50Z</time>
      </trkpt>
      <trkpt lat="48.35013" lon="-3.9451">
        <ele>371.2</ele>
        <time>2021-09-24T11:10:58Z</time>
      </trkpt>
      <trkpt lat="48.35015" lon="-3.94504">
        <ele>369.8</ele>
        <time>2021-09-24T11:11:08Z</time>
      </trkpt>
      <trkpt lat="48.35016" lon="-3.94497">
        <ele>369.4</ele>
        <time>2021-09-24T11:11:14Z</time>
      </trkpt>
      <trkpt lat="48.35016" lon="-3.9449">
        <ele>369.3</ele>
        <time>2021-09-24T11:11:20Z</time>
      </trkpt>
      <trkpt lat="48.35015" lon="-3.94483">
        <ele>368.7</ele>
        <time>2021-09-24T11:11:27Z</time>
      </trkpt>
      <trkpt lat="48.35014" lon="-3.94476">
        <ele>368.1</ele>
        <time>2021-09-24T11:11:33Z</time>
      </trkpt>
      <trkpt lat="48.35013" lon="-3.94469">
        <ele>368</ele>
        <time>2021-09-24T11:11:39Z</time>
      </trkpt>
      <trkpt lat="48.35012" lon="-3.94462">
        <ele>368.8</ele>
        <time>2021-09-24T11:11:44Z</time>
      </trkpt>
      <trkpt lat="48.3501" lon="-3.94455">
        <ele>369.5</ele>
        <time>2021-09-24T11:11:50Z</time>
      </trkpt>
      <trkpt lat="48.35007" lon="-3.94449">
        <ele>370.1</ele>
        <time>2021-09-24T11:11:56Z</time>
      </trkpt>
      <trkpt lat="48.35002" lon="-3.94446">
        <ele>370.1</ele>
        <time>2021-09-24T11:12:02Z</time>
      </trkpt>
      <trkpt lat="48.34998" lon="-3.94447">
        <ele>369.8</ele>
        <time>2021-09-24T11:12:07Z</time>
      </trkpt>
      <trkpt lat="48.34993" lon="-3.94449">
        <ele>369.3</ele>
        <time>2021-09-24T11:12:13Z</time>
      </trkpt>
      <trkpt lat="48.34988" lon="-3.94452">
        <ele>369.2</ele>
        <time>2021-09-24T11:12:19Z</time>
      </trkpt>
      <trkpt lat="48.34984" lon="-3.94456">
        <ele>369.5</ele>
        <time>2021-09-24T11:12:25Z</time>
      </trkpt>
      <trkpt lat="48.3498" lon="-3.9446">
        <ele>369.5</ele>
        <time>2021-09-24T11:12:30Z</time>
      </trkpt>
      <trkpt lat="48.34977" lon="-3.94465">
        <ele>369.4</ele>
        <time>2021-09-24T11:12:35Z</time>
      </trkpt>
      <trkpt lat="48.34973" lon="-3.9447">
        <ele>369.1</ele>
        <time>2021-09-24T11:12:40Z</time>
      </trkpt>
      <trkpt lat="48.3497" lon="-3.94476">
        <ele>367.6</ele>
        <time>2021-09-24T11:12:47Z</time>
      </trkpt>
      <trkpt lat="48.34966" lon="-3.94482">
        <ele>366.4</ele>
        <time>2021-09-24T11:12:52Z</time>
      </trkpt>
      <trkpt lat="48.34964" lon="-3.94488">
        <ele>365.3</ele>
        <time>2021-09-24T11:12:57Z</time>
      </trkpt>
      <trkpt lat="48.34962" lon="-3.94494">
        <ele>363.1</ele>
        <time>2021-09-24T11:13:05Z</time>
      </trkpt>
      <trkpt lat="48.3496" lon="-3.94502">
        <ele>361.9</ele>
        <time>2021-09-24T11:13:11Z</time>
      </trkpt>
      <trkpt lat="48.34958" lon="-3.94508">
        <ele>361.2</ele>
        <time>2021-09-24T11:13:16Z</time>
      </trkpt>
      <trkpt lat="48.34956" lon="-3.94514">
        <ele>360.8</ele>
        <time>2021-09-24T11:13:22Z</time>
      </trkpt>
      <trkpt lat="48.34954" lon="-3.94521">
        <ele>361</ele>
        <time>2021-09-24T11:13:27Z</time>
      </trkpt>
      <trkpt lat="48.34953" lon="-3.94528">
        <ele>361.9</ele>
        <time>2021-09-24T11:13:33Z</time>
      </trkpt>
      <trkpt lat="48.34953" lon="-3.94536">
        <ele>362.6</ele>
        <time>2021-09-24T11:13:39Z</time>
      </trkpt>
      <trkpt lat="48.34951" lon="-3.94543">
        <ele>363.3</ele>
        <time>2021-09-24T11:13:44Z</time>
      </trkpt>
      <trkpt lat="48.34951" lon="-3.9455">
        <ele>364.3</ele>
        <time>2021-09-24T11:13:50Z</time>
      </trkpt>
      <trkpt lat="48.34952" lon="-3.94557">
        <ele>364.6</ele>
        <time>2021-09-24T11:13:55Z</time>
      </trkpt>
      <trkpt lat="48.34953" lon="-3.94564">
        <ele>364.6</ele>
        <time>2021-09-24T11:14:00Z</time>
      </trkpt>
      <trkpt lat="48.34953" lon="-3.94572">
        <ele>364.1</ele>
        <time>2021-09-24T11:14:05Z</time>
      </trkpt>
      <trkpt lat="48.34953" lon="-3.9458">
        <ele>363.7</ele>
        <time>2021-09-24T11:14:10Z</time>
      </trkpt>
      <trkpt lat="48.34954" lon="-3.94588">
        <ele>363.7</ele>
        <time>2021-09-24T11:14:15Z</time>
      </trkpt>
      <trkpt lat="48.34955" lon="-3.94595">
        <ele>363.6</ele>
        <time>2021-09-24T11:14:19Z</time>
      </trkpt>
      <trkpt lat="48.34957" lon="-3.94602">
        <ele>364.2</ele>
        <time>2021-09-24T11:14:25Z</time>
      </trkpt>
      <trkpt lat="48.3496" lon="-3.94608">
        <ele>365.1</ele>
        <time>2021-09-24T11:14:30Z</time>
      </trkpt>
      <trkpt lat="48.34963" lon="-3.94613">
        <ele>365.4</ele>
        <time>2021-09-24T11:14:34Z</time>
      </trkpt>
      <trkpt lat="48.34965" lon="-3.9462">
        <ele>365.4</ele>
        <time>2021-09-24T11:14:39Z</time>
      </trkpt>
      <trkpt lat="48.34967" lon="-3.94628">
        <ele>365</ele>
        <time>2021-09-24T11:14:44Z</time>
      </trkpt>
      <trkpt lat="48.34969" lon="-3.94634">
        <ele>364.2</ele>
        <time>2021-09-24T11:14:49Z</time>
      </trkpt>
      <trkpt lat="48.34972" lon="-3.94639">
        <ele>363.5</ele>
        <time>2021-09-24T11:14:54Z</time>
      </trkpt>
      <trkpt lat="48.34976" lon="-3.94644">
        <ele>363.1</ele>
        <time>2021-09-24T11:15:00Z</time>
      </trkpt>
      <trkpt lat="48.34979" lon="-3.9465">
        <ele>363</ele>
        <time>2021-09-24T11:15:05Z</time>
      </trkpt>
      <trkpt lat="48.34983" lon="-3.94654">
        <ele>363.3</ele>
        <time>2021-09-24T11:15:11Z</time>
      </trkpt>
      <trkpt lat="48.34986" lon="-3.9466">
        <ele>363.7</ele>
        <time>2021-09-24T11:15:16Z</time>
      </trkpt>
      <trkpt lat="48.34989" lon="-3.94666">
        <ele>364.1</ele>
        <time>2021-09-24T11:15:21Z</time>
      </trkpt>
      <trkpt lat="48.34993" lon="-3.94671">
        <ele>364.2</ele>
        <time>2021-09-24T11:15:28Z</time>
      </trkpt>
      <trkpt lat="48.34995" lon="-3.94678">
        <ele>364</ele>
        <time>2021-09-24T11:15:34Z</time>
      </trkpt>
      <trkpt lat="48.34995" lon="-3.94686">
        <ele>363.4</ele>
        <time>2021-09-24T11:15:41Z</time>
      </trkpt>
      <trkpt lat="48.34995" lon="-3.94692">
        <ele>362.2</ele>
        <time>2021-09-24T11:15:54Z</time>
      </trkpt>
      <trkpt lat="48.34999" lon="-3.94689">
        <ele>356.1</ele>
        <time>2021-09-24T11:16:43Z</time>
      </trkpt>
      <trkpt lat="48.34999" lon="-3.94697">
        <ele>355.6</ele>
        <time>2021-09-24T11:16:55Z</time>
      </trkpt>
    </trkseg>
  </trk>
</gpx>